LGR888 GVNP-SBFI
Flight info
| Callsign | LGR888 |
|---|---|
| Flight time | 6h 54m |
| Altitude | 38000 |
| Route | ODMEN1N ODMEN DCT SADBA DCT 05N030W DCT PABIR DCT 07S040W DCT SUBMU UZ94 NECTO UZ18 VADOP DCT MULUV DCT VUDOT DCT PRR UM532 SAPGU DCT ILMIS |
| Aircraft | A339/H-SADE1E2E3GHIJ3J5M1P2RWXY/LB2D1 |
Departure
| Time | 2026-04-29 05:30 |
|---|---|
| Airport | Nelson Mandela International Airport (GVNP) |
Arrival
| Time | 2026-04-29 12:24 |
|---|---|
| Airport | Cataratas International Airport (SBFI) |
| Time | Latitude | Longitude | Altitude | Speed | Heading |
|---|---|---|---|---|---|
| 2026-04-29 05:08 | 14.94395 | -23.48608 | 331 ft | 0 kts | 64° |
| 2026-04-29 05:20 | 14.94396 | -23.48607 | 331 ft | 0 kts | 64° |
| 2026-04-29 05:22 | 14.94399 | -23.48597 | 331 ft | 4 kts | 73° |
| 2026-04-29 05:22 | 14.94395 | -23.48550 | 328 ft | 9 kts | 113° |
| 2026-04-29 05:22 | 14.94358 | -23.48473 | 324 ft | 14 kts | 118° |
| 2026-04-29 05:23 | 14.94294 | -23.48409 | 320 ft | 11 kts | 171° |
| 2026-04-29 05:23 | 14.94229 | -23.48427 | 321 ft | 9 kts | 199° |
| 2026-04-29 05:23 | 14.94162 | -23.48452 | 320 ft | 11 kts | 201° |
| 2026-04-29 05:23 | 14.94087 | -23.48482 | 320 ft | 11 kts | 202° |
| 2026-04-29 05:24 | 14.94010 | -23.48514 | 321 ft | 12 kts | 202° |
| 2026-04-29 05:24 | 14.93921 | -23.48552 | 319 ft | 15 kts | 202° |
| 2026-04-29 05:24 | 14.93805 | -23.48600 | 317 ft | 19 kts | 202° |
| 2026-04-29 05:24 | 14.93669 | -23.48656 | 314 ft | 23 kts | 201° |
| 2026-04-29 05:25 | 14.93527 | -23.48714 | 312 ft | 13 kts | 199° |
| 2026-04-29 05:25 | 14.93466 | -23.48738 | 310 ft | 7 kts | 209° |
| 2026-04-29 05:25 | 14.93407 | -23.48772 | 307 ft | 10 kts | 211° |
| 2026-04-29 05:25 | 14.93380 | -23.48796 | 305 ft | 4 kts | 220° |
| 2026-04-29 05:26 | 14.93373 | -23.48793 | 304 ft | 1 kts | 135° |
| 2026-04-29 05:26 | 14.93374 | -23.48787 | 305 ft | 0 kts | 71° |
| 2026-04-29 05:26 | 14.93375 | -23.48785 | 305 ft | 0 kts | 63° |
| 2026-04-29 05:26 | 14.93375 | -23.48784 | 305 ft | 1 kts | 63° |
| 2026-04-29 05:27 | 14.93378 | -23.48780 | 305 ft | 0 kts | 53° |
| 2026-04-29 05:27 | 14.93393 | -23.48772 | 306 ft | 2 kts | 28° |
| 2026-04-29 05:27 | 14.93395 | -23.48771 | 306 ft | 0 kts | 21° |
| 2026-04-29 05:28 | 14.93391 | -23.48773 | 306 ft | 0 kts | 25° |
| 2026-04-29 05:28 | 14.93383 | -23.48776 | 305 ft | 1 kts | 29° |
| 2026-04-29 05:28 | 14.93385 | -23.48775 | 306 ft | 3 kts | 29° |
| 2026-04-29 05:29 | 14.93388 | -23.48774 | 306 ft | 0 kts | 22° |
| 2026-04-29 05:29 | 14.93516 | -23.48721 | 312 ft | 49 kts | 22° |
| 2026-04-29 05:29 | 14.94014 | -23.48514 | 321 ft | 105 kts | 21° |
| 2026-04-29 05:30 | 14.94854 | -23.48165 | 337 ft | 152 kts | 22° |
| 2026-04-29 05:30 | 14.95791 | -23.47765 | 909 ft | 144 kts | 22° |
| 2026-04-29 05:30 | 14.96727 | -23.47356 | 1341 ft | 149 kts | 22° |
| 2026-04-29 05:30 | 14.97680 | -23.46944 | 1840 ft | 149 kts | 21° |
| 2026-04-29 05:31 | 14.98645 | -23.46529 | 2226 ft | 156 kts | 22° |
| 2026-04-29 05:31 | 14.99519 | -23.45828 | 2458 ft | 171 kts | 55° |
| 2026-04-29 05:31 | 14.99873 | -23.44591 | 2708 ft | 190 kts | 92° |
| 2026-04-29 05:31 | 14.99379 | -23.43289 | 2953 ft | 209 kts | 132° |
| 2026-04-29 05:32 | 14.98083 | -23.42548 | 3217 ft | 224 kts | 176° |
| 2026-04-29 05:32 | 14.96549 | -23.42889 | 3506 ft | 234 kts | 217° |
| 2026-04-29 05:32 | 14.95505 | -23.44165 | 3858 ft | 243 kts | 246° |
| 2026-04-29 05:32 | 14.94872 | -23.45805 | 4458 ft | 246 kts | 252° |
| 2026-04-29 05:33 | 14.94299 | -23.47440 | 5144 ft | 246 kts | 250° |
| 2026-04-29 05:33 | 14.93681 | -23.49081 | 5846 ft | 246 kts | 249° |
| 2026-04-29 05:33 | 14.93034 | -23.50674 | 6500 ft | 246 kts | 247° |
| 2026-04-29 05:33 | 14.92370 | -23.52236 | 7111 ft | 248 kts | 246° |
| 2026-04-29 05:34 | 14.91674 | -23.53834 | 7704 ft | 250 kts | 246° |
| 2026-04-29 05:34 | 14.90957 | -23.55467 | 8326 ft | 251 kts | 246° |
| 2026-04-29 05:34 | 14.90049 | -23.56995 | 8761 ft | 260 kts | 225° |
| 2026-04-29 05:34 | 14.88599 | -23.58195 | 9067 ft | 274 kts | 217° |
| 2026-04-29 05:35 | 14.86994 | -23.59340 | 9600 ft | 280 kts | 216° |
| 2026-04-29 05:35 | 14.85396 | -23.60489 | 10212 ft | 281 kts | 217° |
| 2026-04-29 05:35 | 14.83774 | -23.61684 | 10567 ft | 293 kts | 218° |
| 2026-04-29 05:35 | 14.82104 | -23.62943 | 10831 ft | 308 kts | 218° |
| 2026-04-29 05:36 | 14.80337 | -23.64293 | 11083 ft | 322 kts | 218° |
| 2026-04-29 05:36 | 14.78498 | -23.65708 | 11327 ft | 336 kts | 218° |
| 2026-04-29 05:36 | 14.76575 | -23.67194 | 11635 ft | 348 kts | 218° |
| 2026-04-29 05:36 | 14.74615 | -23.68712 | 12150 ft | 353 kts | 218° |
| 2026-04-29 05:37 | 14.72649 | -23.70235 | 12692 ft | 357 kts | 218° |
| 2026-04-29 05:37 | 14.70664 | -23.71774 | 13226 ft | 360 kts | 219° |
| 2026-04-29 05:37 | 14.68628 | -23.73353 | 13755 ft | 363 kts | 219° |
| 2026-04-29 05:37 | 14.66590 | -23.74936 | 14264 ft | 367 kts | 219° |
| 2026-04-29 05:38 | 14.64539 | -23.76527 | 14753 ft | 371 kts | 219° |
| 2026-04-29 05:38 | 14.62438 | -23.78156 | 15252 ft | 374 kts | 219° |
| 2026-04-29 05:38 | 14.60310 | -23.79807 | 15749 ft | 378 kts | 219° |
| 2026-04-29 05:38 | 14.58128 | -23.81500 | 16221 ft | 382 kts | 219° |
| 2026-04-29 05:39 | 14.56013 | -23.83139 | 16671 ft | 385 kts | 219° |
| 2026-04-29 05:39 | 14.53851 | -23.84815 | 17116 ft | 389 kts | 219° |
| 2026-04-29 05:39 | 14.51675 | -23.86501 | 17555 ft | 392 kts | 219° |
| 2026-04-29 05:39 | 14.49486 | -23.88197 | 18020 ft | 395 kts | 219° |
| 2026-04-29 05:40 | 14.47297 | -23.89892 | 18487 ft | 398 kts | 219° |
| 2026-04-29 05:40 | 14.45060 | -23.91625 | 18954 ft | 400 kts | 219° |
| 2026-04-29 05:40 | 14.42817 | -23.93363 | 19414 ft | 403 kts | 219° |
| 2026-04-29 05:40 | 14.40569 | -23.95103 | 19862 ft | 406 kts | 219° |
| 2026-04-29 05:41 | 14.38320 | -23.96843 | 20316 ft | 408 kts | 219° |
| 2026-04-29 05:41 | 14.36025 | -23.98618 | 20755 ft | 410 kts | 219° |
| 2026-04-29 05:41 | 14.33756 | -24.00374 | 21180 ft | 413 kts | 219° |
| 2026-04-29 05:41 | 14.31438 | -24.02167 | 21590 ft | 416 kts | 219° |
| 2026-04-29 05:42 | 14.29107 | -24.03970 | 21996 ft | 418 kts | 220° |
| 2026-04-29 05:42 | 14.26800 | -24.05752 | 22394 ft | 420 kts | 220° |
| 2026-04-29 05:42 | 14.24445 | -24.07572 | 22788 ft | 423 kts | 220° |
| 2026-04-29 05:42 | 14.22066 | -24.09409 | 23184 ft | 425 kts | 220° |
| 2026-04-29 05:43 | 14.19707 | -24.11232 | 23573 ft | 427 kts | 220° |
| 2026-04-29 05:43 | 14.17322 | -24.13073 | 23948 ft | 429 kts | 220° |
| 2026-04-29 05:43 | 14.14914 | -24.14932 | 24318 ft | 432 kts | 220° |
| 2026-04-29 05:43 | 14.12514 | -24.16785 | 24677 ft | 434 kts | 220° |
| 2026-04-29 05:44 | 14.10070 | -24.18671 | 25050 ft | 436 kts | 220° |
| 2026-04-29 05:44 | 14.07643 | -24.20543 | 25412 ft | 439 kts | 220° |
| 2026-04-29 05:44 | 14.05182 | -24.22441 | 25757 ft | 441 kts | 220° |
| 2026-04-29 05:44 | 14.02731 | -24.24331 | 26111 ft | 443 kts | 220° |
| 2026-04-29 05:45 | 14.00281 | -24.26220 | 26464 ft | 444 kts | 220° |
| 2026-04-29 05:45 | 13.97784 | -24.28143 | 26796 ft | 446 kts | 220° |
| 2026-04-29 05:45 | 13.95300 | -24.30057 | 27113 ft | 448 kts | 220° |
| 2026-04-29 05:45 | 13.92801 | -24.31982 | 27415 ft | 451 kts | 220° |
| 2026-04-29 05:46 | 13.90221 | -24.33901 | 27714 ft | 454 kts | 218° |
| 2026-04-29 05:46 | 13.87581 | -24.35654 | 27998 ft | 458 kts | 215° |
| 2026-04-29 05:46 | 13.84833 | -24.37354 | 28303 ft | 460 kts | 215° |
| 2026-04-29 05:46 | 13.82079 | -24.39049 | 28597 ft | 461 kts | 214° |
| 2026-04-29 05:47 | 13.79310 | -24.40751 | 28871 ft | 464 kts | 214° |
| 2026-04-29 05:47 | 13.76547 | -24.42452 | 29161 ft | 465 kts | 214° |
| 2026-04-29 05:47 | 13.73746 | -24.44176 | 29467 ft | 467 kts | 214° |
| 2026-04-29 05:47 | 13.70975 | -24.45882 | 29763 ft | 468 kts | 214° |
| 2026-04-29 05:48 | 13.68169 | -24.47610 | 30057 ft | 469 kts | 214° |
| 2026-04-29 05:48 | 13.65372 | -24.49330 | 30395 ft | 469 kts | 214° |
| 2026-04-29 05:48 | 13.62574 | -24.51051 | 30821 ft | 467 kts | 214° |
| 2026-04-29 05:48 | 13.59777 | -24.52770 | 31247 ft | 465 kts | 214° |
| 2026-04-29 05:49 | 13.57013 | -24.54468 | 31675 ft | 463 kts | 214° |
| 2026-04-29 05:49 | 13.54256 | -24.56164 | 32074 ft | 461 kts | 214° |
| 2026-04-29 05:49 | 13.51500 | -24.57859 | 32462 ft | 459 kts | 214° |
| 2026-04-29 05:49 | 13.48780 | -24.59531 | 32878 ft | 457 kts | 214° |
| 2026-04-29 05:50 | 13.46056 | -24.61204 | 33322 ft | 455 kts | 214° |
| 2026-04-29 05:50 | 13.43320 | -24.62884 | 33771 ft | 453 kts | 214° |
| 2026-04-29 05:50 | 13.40628 | -24.64536 | 34184 ft | 451 kts | 214° |
| 2026-04-29 05:50 | 13.37918 | -24.66199 | 34578 ft | 450 kts | 214° |
| 2026-04-29 05:51 | 13.35236 | -24.67845 | 34950 ft | 449 kts | 214° |
| 2026-04-29 05:51 | 13.32583 | -24.69473 | 35310 ft | 448 kts | 214° |
| 2026-04-29 05:51 | 13.29888 | -24.71126 | 35651 ft | 448 kts | 214° |
| 2026-04-29 05:51 | 13.27202 | -24.72773 | 35982 ft | 447 kts | 214° |
| 2026-04-29 05:52 | 13.24532 | -24.74410 | 36288 ft | 446 kts | 214° |
| 2026-04-29 05:52 | 13.21868 | -24.76044 | 36539 ft | 447 kts | 214° |
| 2026-04-29 05:52 | 13.19190 | -24.77686 | 36716 ft | 448 kts | 214° |
| 2026-04-29 05:52 | 13.16531 | -24.79316 | 36915 ft | 449 kts | 214° |
| 2026-04-29 05:53 | 13.13842 | -24.80963 | 37136 ft | 450 kts | 214° |
| 2026-04-29 05:53 | 13.11137 | -24.82619 | 37328 ft | 451 kts | 213° |
| 2026-04-29 05:53 | 13.08437 | -24.84272 | 37502 ft | 452 kts | 213° |
| 2026-04-29 05:53 | 13.05735 | -24.85927 | 37669 ft | 453 kts | 213° |
| 2026-04-29 05:54 | 13.03040 | -24.87576 | 37836 ft | 454 kts | 213° |
| 2026-04-29 05:54 | 13.00324 | -24.89236 | 37991 ft | 455 kts | 213° |
| 2026-04-29 05:54 | 12.94870 | -24.92570 | 37996 ft | 455 kts | 213° |
| 2026-04-29 05:55 | 12.89409 | -24.95906 | 37997 ft | 455 kts | 213° |
| 2026-04-29 05:55 | 12.83993 | -24.99216 | 37997 ft | 455 kts | 214° |
| 2026-04-29 05:56 | 12.78542 | -25.02546 | 37998 ft | 455 kts | 214° |
| 2026-04-29 05:56 | 12.73103 | -25.05866 | 37996 ft | 455 kts | 213° |
| 2026-04-29 05:57 | 12.67658 | -25.09188 | 37998 ft | 455 kts | 213° |
| 2026-04-29 05:57 | 12.62173 | -25.12531 | 37998 ft | 455 kts | 213° |
| 2026-04-29 05:58 | 12.56743 | -25.15840 | 37995 ft | 454 kts | 213° |
| 2026-04-29 05:58 | 12.51312 | -25.19146 | 38000 ft | 454 kts | 213° |
| 2026-04-29 05:59 | 12.45883 | -25.22451 | 37998 ft | 453 kts | 213° |
| 2026-04-29 05:59 | 12.40457 | -25.25753 | 38000 ft | 452 kts | 213° |
| 2026-04-29 06:00 | 12.35034 | -25.29052 | 37997 ft | 452 kts | 213° |
| 2026-04-29 06:00 | 12.29610 | -25.32351 | 37997 ft | 451 kts | 213° |
| 2026-04-29 06:01 | 12.24178 | -25.35650 | 37997 ft | 452 kts | 213° |
| 2026-04-29 06:01 | 12.18775 | -25.38930 | 37997 ft | 452 kts | 213° |
| 2026-04-29 06:02 | 12.13362 | -25.42215 | 38000 ft | 451 kts | 213° |
| 2026-04-29 06:02 | 12.07953 | -25.45495 | 38006 ft | 450 kts | 213° |
| 2026-04-29 06:03 | 12.02543 | -25.48775 | 38018 ft | 450 kts | 213° |
| 2026-04-29 06:03 | 11.97185 | -25.52023 | 38016 ft | 449 kts | 213° |
| 2026-04-29 06:04 | 11.91792 | -25.55291 | 38023 ft | 449 kts | 212° |
| 2026-04-29 06:04 | 11.86408 | -25.58551 | 38015 ft | 449 kts | 212° |
| 2026-04-29 06:05 | 11.81011 | -25.61818 | 38010 ft | 450 kts | 212° |
| 2026-04-29 06:05 | 11.75604 | -25.65088 | 38013 ft | 450 kts | 212° |
| 2026-04-29 06:06 | 11.70237 | -25.68333 | 38011 ft | 450 kts | 212° |
| 2026-04-29 06:06 | 11.64813 | -25.71613 | 38002 ft | 451 kts | 212° |
| 2026-04-29 06:07 | 11.59405 | -25.74880 | 37994 ft | 452 kts | 212° |
| 2026-04-29 06:07 | 11.53988 | -25.78152 | 37996 ft | 453 kts | 212° |
| 2026-04-29 06:08 | 11.48530 | -25.81448 | 37996 ft | 453 kts | 212° |
| 2026-04-29 06:08 | 11.43084 | -25.84733 | 37996 ft | 453 kts | 212° |
| 2026-04-29 06:09 | 11.37639 | -25.88016 | 37997 ft | 453 kts | 212° |
| 2026-04-29 06:09 | 11.32193 | -25.91299 | 37994 ft | 453 kts | 212° |
| 2026-04-29 06:10 | 11.26775 | -25.94563 | 37997 ft | 453 kts | 212° |
| 2026-04-29 06:10 | 11.21315 | -25.97849 | 37994 ft | 453 kts | 212° |
| 2026-04-29 06:11 | 11.15889 | -26.01116 | 37996 ft | 453 kts | 212° |
| 2026-04-29 06:11 | 11.10405 | -26.04418 | 37995 ft | 453 kts | 212° |
| 2026-04-29 06:12 | 11.04986 | -26.07679 | 37995 ft | 454 kts | 212° |
| 2026-04-29 06:12 | 10.99522 | -26.10964 | 37999 ft | 454 kts | 212° |
| 2026-04-29 06:13 | 10.94048 | -26.14253 | 37997 ft | 455 kts | 212° |
| 2026-04-29 06:13 | 10.88559 | -26.17550 | 37999 ft | 455 kts | 212° |
| 2026-04-29 06:14 | 10.83119 | -26.20816 | 37997 ft | 455 kts | 212° |
| 2026-04-29 06:14 | 10.77641 | -26.24103 | 37997 ft | 455 kts | 212° |
| 2026-04-29 06:15 | 10.72181 | -26.27380 | 37998 ft | 455 kts | 212° |
| 2026-04-29 06:15 | 10.66730 | -26.30650 | 37997 ft | 456 kts | 212° |
| 2026-04-29 06:16 | 10.61243 | -26.33939 | 37996 ft | 455 kts | 212° |
| 2026-04-29 06:16 | 10.55753 | -26.37228 | 37997 ft | 455 kts | 212° |
| 2026-04-29 06:17 | 10.50288 | -26.40501 | 37998 ft | 456 kts | 212° |
| 2026-04-29 06:17 | 10.44804 | -26.43784 | 37995 ft | 455 kts | 212° |
| 2026-04-29 06:18 | 10.39294 | -26.47081 | 37995 ft | 456 kts | 212° |
| 2026-04-29 06:18 | 10.33823 | -26.50354 | 37996 ft | 456 kts | 212° |
| 2026-04-29 06:19 | 10.28330 | -26.53638 | 37996 ft | 455 kts | 212° |
| 2026-04-29 06:19 | 10.22837 | -26.56925 | 37996 ft | 456 kts | 211° |
| 2026-04-29 06:20 | 10.17316 | -26.60225 | 37997 ft | 456 kts | 211° |
| 2026-04-29 06:20 | 10.11807 | -26.63514 | 37995 ft | 456 kts | 211° |
| 2026-04-29 06:21 | 10.06336 | -26.66780 | 37994 ft | 456 kts | 211° |
| 2026-04-29 06:21 | 10.00853 | -26.70052 | 37995 ft | 456 kts | 211° |
| 2026-04-29 06:22 | 9.95379 | -26.73316 | 37996 ft | 454 kts | 211° |
| 2026-04-29 06:22 | 9.89892 | -26.76588 | 37995 ft | 454 kts | 211° |
| 2026-04-29 06:23 | 9.84437 | -26.79840 | 37996 ft | 454 kts | 211° |
| 2026-04-29 06:23 | 9.78943 | -26.83115 | 37996 ft | 455 kts | 211° |
| 2026-04-29 06:24 | 9.73480 | -26.86369 | 37996 ft | 456 kts | 211° |
| 2026-04-29 06:24 | 9.67967 | -26.89650 | 37996 ft | 455 kts | 211° |
| 2026-04-29 06:25 | 9.62503 | -26.92901 | 37996 ft | 454 kts | 211° |
| 2026-04-29 06:25 | 9.57031 | -26.96156 | 37996 ft | 454 kts | 211° |
| 2026-04-29 06:26 | 9.51579 | -26.99399 | 37996 ft | 454 kts | 211° |
| 2026-04-29 06:26 | 9.46112 | -27.02649 | 37997 ft | 454 kts | 211° |
| 2026-04-29 06:27 | 9.40644 | -27.05898 | 37996 ft | 455 kts | 211° |
| 2026-04-29 06:27 | 9.35178 | -27.09145 | 37998 ft | 454 kts | 211° |
| 2026-04-29 06:28 | 9.29714 | -27.12390 | 37997 ft | 455 kts | 211° |
| 2026-04-29 06:28 | 9.24246 | -27.15636 | 37996 ft | 455 kts | 211° |
| 2026-04-29 06:29 | 9.18792 | -27.18873 | 37996 ft | 454 kts | 211° |
| 2026-04-29 06:29 | 9.13341 | -27.22106 | 37996 ft | 455 kts | 211° |
| 2026-04-29 06:30 | 9.05148 | -27.26966 | 37996 ft | 455 kts | 211° |
| 2026-04-29 06:31 | 8.99677 | -27.30212 | 37995 ft | 456 kts | 211° |
| 2026-04-29 06:31 | 8.94209 | -27.33486 | 37989 ft | 455 kts | 212° |
| 2026-04-29 06:32 | 8.88934 | -27.37035 | 37979 ft | 455 kts | 214° |
| 2026-04-29 06:32 | 8.83689 | -27.40620 | 37977 ft | 455 kts | 214° |
| 2026-04-29 06:33 | 8.78429 | -27.44214 | 37977 ft | 455 kts | 214° |
| 2026-04-29 06:33 | 8.73184 | -27.47798 | 37976 ft | 456 kts | 214° |
| 2026-04-29 06:34 | 8.67930 | -27.51383 | 37976 ft | 456 kts | 214° |
| 2026-04-29 06:34 | 8.62662 | -27.54979 | 37977 ft | 457 kts | 214° |
| 2026-04-29 06:35 | 8.57391 | -27.58575 | 37978 ft | 456 kts | 214° |
| 2026-04-29 06:35 | 8.52117 | -27.62173 | 37977 ft | 457 kts | 214° |
| 2026-04-29 06:36 | 8.46830 | -27.65778 | 37978 ft | 457 kts | 214° |
| 2026-04-29 06:36 | 8.41593 | -27.69346 | 37977 ft | 457 kts | 214° |
| 2026-04-29 06:37 | 8.36282 | -27.72964 | 37976 ft | 458 kts | 214° |
| 2026-04-29 06:37 | 8.30996 | -27.76565 | 37981 ft | 459 kts | 214° |
| 2026-04-29 06:38 | 8.25738 | -27.80146 | 37976 ft | 458 kts | 214° |
| 2026-04-29 06:38 | 8.20408 | -27.83774 | 37978 ft | 458 kts | 214° |
| 2026-04-29 06:39 | 8.15155 | -27.87347 | 37979 ft | 457 kts | 214° |
| 2026-04-29 06:39 | 8.09886 | -27.90932 | 37979 ft | 457 kts | 214° |
| 2026-04-29 06:40 | 8.04593 | -27.94531 | 37979 ft | 457 kts | 214° |
| 2026-04-29 06:40 | 7.99302 | -27.98126 | 37977 ft | 457 kts | 214° |
| 2026-04-29 06:41 | 7.94027 | -28.01711 | 37977 ft | 458 kts | 214° |
| 2026-04-29 06:41 | 7.88716 | -28.05320 | 37976 ft | 459 kts | 214° |
| 2026-04-29 06:42 | 7.83348 | -28.08967 | 37975 ft | 459 kts | 214° |
| 2026-04-29 06:42 | 7.77978 | -28.12612 | 37976 ft | 459 kts | 214° |
| 2026-04-29 06:43 | 7.72674 | -28.16211 | 37976 ft | 458 kts | 214° |
| 2026-04-29 06:43 | 7.67423 | -28.19774 | 37976 ft | 457 kts | 214° |
| 2026-04-29 06:44 | 7.62112 | -28.23376 | 37976 ft | 458 kts | 214° |
| 2026-04-29 06:44 | 7.56730 | -28.27025 | 37975 ft | 458 kts | 214° |
| 2026-04-29 06:45 | 7.51355 | -28.30668 | 37976 ft | 458 kts | 214° |
| 2026-04-29 06:45 | 7.45986 | -28.34307 | 37975 ft | 459 kts | 214° |
| 2026-04-29 06:46 | 7.40654 | -28.37920 | 37976 ft | 458 kts | 214° |
| 2026-04-29 06:46 | 7.35364 | -28.41503 | 37975 ft | 458 kts | 214° |
| 2026-04-29 06:47 | 7.30025 | -28.45118 | 38327 ft | 458 kts | 214° |
| 2026-04-29 06:47 | 7.27403 | -28.46893 | 38614 ft | 457 kts | 214° |
| 2026-04-29 06:47 | 7.24756 | -28.48684 | 38911 ft | 455 kts | 214° |
| 2026-04-29 06:47 | 7.22141 | -28.50452 | 39168 ft | 454 kts | 214° |
| 2026-04-29 06:48 | 7.19509 | -28.52232 | 39379 ft | 454 kts | 214° |
| 2026-04-29 06:48 | 7.16865 | -28.54020 | 39545 ft | 454 kts | 214° |
| 2026-04-29 06:48 | 7.14263 | -28.55780 | 39696 ft | 455 kts | 214° |
| 2026-04-29 06:48 | 7.11610 | -28.57575 | 39866 ft | 455 kts | 214° |
| 2026-04-29 06:49 | 7.09002 | -28.59338 | 39974 ft | 455 kts | 214° |
| 2026-04-29 06:49 | 7.03745 | -28.62893 | 39976 ft | 454 kts | 214° |
| 2026-04-29 06:50 | 6.98477 | -28.66454 | 39977 ft | 455 kts | 214° |
| 2026-04-29 06:50 | 6.93254 | -28.69983 | 39976 ft | 454 kts | 214° |
| 2026-04-29 06:51 | 6.87977 | -28.73548 | 39975 ft | 454 kts | 214° |
| 2026-04-29 06:51 | 6.82739 | -28.77086 | 39975 ft | 454 kts | 213° |
| 2026-04-29 06:52 | 6.77503 | -28.80621 | 39972 ft | 454 kts | 213° |
| 2026-04-29 06:52 | 6.72225 | -28.84183 | 39972 ft | 455 kts | 213° |
| 2026-04-29 06:53 | 6.66974 | -28.87726 | 39969 ft | 455 kts | 213° |
| 2026-04-29 06:53 | 6.61708 | -28.91279 | 39963 ft | 455 kts | 214° |
| 2026-04-29 06:54 | 6.56458 | -28.94820 | 39957 ft | 454 kts | 213° |
| 2026-04-29 06:54 | 6.51213 | -28.98358 | 39956 ft | 455 kts | 213° |
| 2026-04-29 06:55 | 6.45926 | -29.01922 | 39956 ft | 455 kts | 213° |
| 2026-04-29 06:55 | 6.40666 | -29.05465 | 39954 ft | 456 kts | 213° |
| 2026-04-29 06:56 | 6.35412 | -29.09004 | 39956 ft | 455 kts | 214° |
| 2026-04-29 06:56 | 6.30124 | -29.12567 | 39955 ft | 456 kts | 214° |
| 2026-04-29 06:57 | 6.24852 | -29.16117 | 39956 ft | 456 kts | 214° |
| 2026-04-29 06:57 | 6.19598 | -29.19656 | 39957 ft | 455 kts | 213° |
| 2026-04-29 06:58 | 6.14335 | -29.23198 | 39958 ft | 456 kts | 213° |
| 2026-04-29 06:58 | 6.09045 | -29.26759 | 39957 ft | 457 kts | 213° |
| 2026-04-29 06:59 | 6.03765 | -29.30311 | 39957 ft | 457 kts | 213° |
| 2026-04-29 06:59 | 5.98470 | -29.33871 | 39956 ft | 457 kts | 213° |
| 2026-04-29 07:00 | 5.93172 | -29.37433 | 39955 ft | 457 kts | 213° |
| 2026-04-29 07:00 | 5.87838 | -29.40935 | 39949 ft | 457 kts | 207° |
| 2026-04-29 07:01 | 5.81892 | -29.43222 | 39954 ft | 457 kts | 205° |
| 2026-04-29 07:01 | 5.76532 | -29.46593 | 39958 ft | 458 kts | 217° |
| 2026-04-29 07:02 | 5.71540 | -29.50630 | 39956 ft | 458 kts | 218° |
| 2026-04-29 07:02 | 5.66552 | -29.54580 | 39958 ft | 459 kts | 217° |
| 2026-04-29 07:03 | 5.61417 | -29.58400 | 39962 ft | 458 kts | 215° |
| 2026-04-29 07:03 | 5.56216 | -29.62086 | 39962 ft | 458 kts | 214° |
| 2026-04-29 07:04 | 5.50930 | -29.65732 | 39964 ft | 458 kts | 213° |
| 2026-04-29 07:04 | 5.45667 | -29.69307 | 39963 ft | 458 kts | 213° |
| 2026-04-29 07:05 | 5.40374 | -29.72877 | 39964 ft | 459 kts | 213° |
| 2026-04-29 07:05 | 5.35073 | -29.76444 | 39964 ft | 458 kts | 213° |
| 2026-04-29 07:06 | 5.29760 | -29.80011 | 39965 ft | 459 kts | 213° |
| 2026-04-29 07:06 | 5.24441 | -29.83581 | 39964 ft | 459 kts | 213° |
| 2026-04-29 07:07 | 5.19124 | -29.87147 | 39965 ft | 460 kts | 213° |
| 2026-04-29 07:07 | 5.13781 | -29.90732 | 39968 ft | 460 kts | 213° |
| 2026-04-29 07:08 | 5.08492 | -29.94280 | 39974 ft | 459 kts | 213° |
| 2026-04-29 07:08 | 5.03174 | -29.97847 | 39974 ft | 460 kts | 214° |
| 2026-04-29 07:09 | 4.98087 | -30.01727 | 39976 ft | 460 kts | 220° |
| 2026-04-29 07:09 | 4.93294 | -30.06037 | 39976 ft | 461 kts | 221° |
| 2026-04-29 07:10 | 4.88574 | -30.10343 | 39972 ft | 461 kts | 222° |
| 2026-04-29 07:10 | 4.83822 | -30.14676 | 39966 ft | 461 kts | 221° |
| 2026-04-29 07:11 | 4.79063 | -30.19010 | 39958 ft | 461 kts | 221° |
| 2026-04-29 07:11 | 4.74327 | -30.23322 | 39956 ft | 461 kts | 221° |
| 2026-04-29 07:12 | 4.69564 | -30.27656 | 39955 ft | 460 kts | 221° |
| 2026-04-29 07:12 | 4.64812 | -30.31977 | 39955 ft | 460 kts | 221° |
| 2026-04-29 07:13 | 4.60085 | -30.36276 | 39956 ft | 460 kts | 221° |
| 2026-04-29 07:13 | 4.55354 | -30.40578 | 39956 ft | 460 kts | 221° |
| 2026-04-29 07:14 | 4.50605 | -30.44895 | 39956 ft | 460 kts | 222° |
| 2026-04-29 07:14 | 4.45903 | -30.49171 | 39957 ft | 460 kts | 221° |
| 2026-04-29 07:15 | 4.41187 | -30.53458 | 39956 ft | 460 kts | 221° |
| 2026-04-29 07:15 | 4.36743 | -30.57495 | 39956 ft | 460 kts | 221° |
| 2026-04-29 07:16 | 4.32255 | -30.61571 | 39956 ft | 459 kts | 221° |
| 2026-04-29 07:16 | 4.27844 | -30.65577 | 39957 ft | 459 kts | 221° |
| 2026-04-29 07:17 | 4.23394 | -30.69617 | 39956 ft | 460 kts | 221° |
| 2026-04-29 07:17 | 4.18950 | -30.73652 | 39956 ft | 460 kts | 221° |
| 2026-04-29 07:18 | 4.14515 | -30.77679 | 39956 ft | 460 kts | 221° |
| 2026-04-29 07:18 | 4.10109 | -30.81680 | 39956 ft | 460 kts | 221° |
| 2026-04-29 07:19 | 4.05669 | -30.85710 | 39956 ft | 459 kts | 221° |
| 2026-04-29 07:19 | 4.01180 | -30.89783 | 39956 ft | 459 kts | 221° |
| 2026-04-29 07:20 | 3.96436 | -30.94087 | 39956 ft | 459 kts | 221° |
| 2026-04-29 07:20 | 3.91682 | -30.98401 | 39957 ft | 459 kts | 221° |
| 2026-04-29 07:21 | 3.86903 | -31.02736 | 39957 ft | 459 kts | 221° |
| 2026-04-29 07:21 | 3.82099 | -31.07094 | 39956 ft | 460 kts | 221° |
| 2026-04-29 07:22 | 3.77137 | -31.11594 | 39956 ft | 460 kts | 221° |
| 2026-04-29 07:22 | 3.72376 | -31.15911 | 39956 ft | 460 kts | 221° |
| 2026-04-29 07:23 | 3.67614 | -31.20228 | 39956 ft | 460 kts | 221° |
| 2026-04-29 07:23 | 3.63061 | -31.24356 | 39956 ft | 460 kts | 221° |
| 2026-04-29 07:24 | 3.58493 | -31.28495 | 39956 ft | 460 kts | 221° |
| 2026-04-29 07:24 | 3.53979 | -31.32585 | 39956 ft | 459 kts | 221° |
| 2026-04-29 07:25 | 3.49594 | -31.36556 | 39956 ft | 459 kts | 221° |
| 2026-04-29 07:25 | 3.45054 | -31.40667 | 39955 ft | 460 kts | 221° |
| 2026-04-29 07:26 | 3.40455 | -31.44833 | 39954 ft | 460 kts | 221° |
| 2026-04-29 07:26 | 3.35950 | -31.48912 | 39952 ft | 460 kts | 221° |
| 2026-04-29 07:27 | 3.31425 | -31.53012 | 39949 ft | 460 kts | 221° |
| 2026-04-29 07:27 | 3.26901 | -31.57108 | 39948 ft | 460 kts | 221° |
| 2026-04-29 07:28 | 3.22478 | -31.61113 | 39946 ft | 460 kts | 221° |
| 2026-04-29 07:28 | 3.18075 | -31.65099 | 39945 ft | 460 kts | 221° |
| 2026-04-29 07:29 | 3.13689 | -31.69069 | 39944 ft | 460 kts | 221° |
| 2026-04-29 07:29 | 3.09239 | -31.73097 | 39943 ft | 459 kts | 221° |
| 2026-04-29 07:30 | 3.04875 | -31.77047 | 39942 ft | 459 kts | 221° |
| 2026-04-29 07:30 | 3.00505 | -31.81004 | 39941 ft | 459 kts | 221° |
| 2026-04-29 07:31 | 2.93937 | -31.86949 | 39939 ft | 460 kts | 221° |
| 2026-04-29 07:31 | 2.89382 | -31.90840 | 39936 ft | 461 kts | 218° |
| 2026-04-29 07:32 | 2.84702 | -31.94650 | 39938 ft | 461 kts | 218° |
| 2026-04-29 07:32 | 2.80007 | -31.98473 | 39935 ft | 461 kts | 218° |
| 2026-04-29 07:33 | 2.75422 | -32.02211 | 39935 ft | 462 kts | 218° |
| 2026-04-29 07:33 | 2.70806 | -32.05977 | 39935 ft | 462 kts | 218° |
| 2026-04-29 07:34 | 2.66158 | -32.09768 | 39931 ft | 462 kts | 218° |
| 2026-04-29 07:34 | 2.61232 | -32.13788 | 39932 ft | 463 kts | 218° |
| 2026-04-29 07:35 | 2.56196 | -32.17897 | 39934 ft | 463 kts | 218° |
| 2026-04-29 07:35 | 2.51198 | -32.21975 | 39933 ft | 464 kts | 218° |
| 2026-04-29 07:36 | 2.46333 | -32.25944 | 39937 ft | 464 kts | 218° |
| 2026-04-29 07:36 | 2.41649 | -32.29764 | 39930 ft | 465 kts | 218° |
| 2026-04-29 07:37 | 2.36976 | -32.33575 | 39935 ft | 465 kts | 218° |
| 2026-04-29 07:37 | 2.32159 | -32.37502 | 39936 ft | 466 kts | 218° |
| 2026-04-29 07:38 | 2.27240 | -32.41514 | 39940 ft | 466 kts | 218° |
| 2026-04-29 07:38 | 2.22276 | -32.45562 | 39939 ft | 466 kts | 218° |
| 2026-04-29 07:39 | 2.17466 | -32.49483 | 39937 ft | 465 kts | 219° |
| 2026-04-29 07:39 | 2.12524 | -32.53513 | 39934 ft | 466 kts | 218° |
| 2026-04-29 07:40 | 2.07466 | -32.57637 | 39934 ft | 466 kts | 219° |
| 2026-04-29 07:40 | 2.02522 | -32.61665 | 39934 ft | 467 kts | 219° |
| 2026-04-29 07:41 | 1.97646 | -32.65640 | 39936 ft | 467 kts | 219° |
| 2026-04-29 07:41 | 1.92743 | -32.69635 | 39936 ft | 467 kts | 219° |
| 2026-04-29 07:42 | 1.87805 | -32.73660 | 39935 ft | 467 kts | 219° |
| 2026-04-29 07:42 | 1.82883 | -32.77673 | 39936 ft | 466 kts | 218° |
| 2026-04-29 07:43 | 1.77975 | -32.81672 | 39937 ft | 466 kts | 218° |
| 2026-04-29 07:43 | 1.73218 | -32.85547 | 39936 ft | 467 kts | 219° |
| 2026-04-29 07:44 | 1.68160 | -32.89667 | 39936 ft | 467 kts | 218° |
| 2026-04-29 07:44 | 1.63114 | -32.93777 | 39934 ft | 468 kts | 218° |
| 2026-04-29 07:45 | 1.58064 | -32.97890 | 39936 ft | 469 kts | 219° |
| 2026-04-29 07:45 | 1.53027 | -33.01994 | 39935 ft | 469 kts | 218° |
| 2026-04-29 07:46 | 1.47954 | -33.06125 | 39934 ft | 468 kts | 218° |
| 2026-04-29 07:46 | 1.42891 | -33.10248 | 39936 ft | 468 kts | 218° |
| 2026-04-29 07:47 | 1.37869 | -33.14339 | 39935 ft | 469 kts | 218° |
| 2026-04-29 07:47 | 1.32811 | -33.18457 | 39938 ft | 469 kts | 218° |
| 2026-04-29 07:48 | 1.27726 | -33.22597 | 39935 ft | 469 kts | 218° |
| 2026-04-29 07:48 | 1.22688 | -33.26698 | 39936 ft | 469 kts | 218° |
| 2026-04-29 07:49 | 1.17630 | -33.30817 | 39937 ft | 469 kts | 218° |
| 2026-04-29 07:49 | 1.12559 | -33.34946 | 39935 ft | 470 kts | 218° |
| 2026-04-29 07:50 | 1.07480 | -33.39081 | 39936 ft | 470 kts | 218° |
| 2026-04-29 07:50 | 1.02397 | -33.43219 | 39936 ft | 470 kts | 218° |
| 2026-04-29 07:51 | 0.97432 | -33.47260 | 39935 ft | 470 kts | 218° |
| 2026-04-29 07:51 | 0.92348 | -33.51399 | 39935 ft | 469 kts | 218° |
| 2026-04-29 07:52 | 0.87300 | -33.55509 | 39936 ft | 469 kts | 218° |
| 2026-04-29 07:52 | 0.82205 | -33.59655 | 39935 ft | 470 kts | 218° |
| 2026-04-29 07:53 | 0.77110 | -33.63803 | 39935 ft | 470 kts | 218° |
| 2026-04-29 07:53 | 0.72025 | -33.67941 | 39935 ft | 470 kts | 218° |
| 2026-04-29 07:54 | 0.66940 | -33.72080 | 39935 ft | 470 kts | 218° |
| 2026-04-29 07:54 | 0.61874 | -33.76203 | 39935 ft | 470 kts | 218° |
| 2026-04-29 07:55 | 0.56798 | -33.80334 | 39930 ft | 470 kts | 218° |
| 2026-04-29 07:55 | 0.51685 | -33.84496 | 39929 ft | 470 kts | 218° |
| 2026-04-29 07:56 | 0.46583 | -33.88649 | 39932 ft | 470 kts | 218° |
| 2026-04-29 07:56 | 0.41510 | -33.92777 | 39935 ft | 470 kts | 218° |
| 2026-04-29 07:57 | 0.36420 | -33.96918 | 39938 ft | 471 kts | 218° |
| 2026-04-29 07:57 | 0.31356 | -34.01038 | 39942 ft | 471 kts | 218° |
| 2026-04-29 07:58 | 0.26280 | -34.05168 | 39944 ft | 471 kts | 218° |
| 2026-04-29 07:58 | 0.21185 | -34.09315 | 39943 ft | 471 kts | 218° |
| 2026-04-29 07:59 | 0.16105 | -34.13450 | 39937 ft | 471 kts | 218° |
| 2026-04-29 07:59 | 0.11036 | -34.17574 | 39937 ft | 472 kts | 218° |
| 2026-04-29 08:00 | 0.05933 | -34.21727 | 39932 ft | 473 kts | 218° |
| 2026-04-29 08:00 | 0.00821 | -34.25884 | 39933 ft | 472 kts | 218° |
| 2026-04-29 08:01 | -0.04284 | -34.30039 | 39931 ft | 472 kts | 218° |
| 2026-04-29 08:01 | -0.09381 | -34.34186 | 39933 ft | 472 kts | 218° |
| 2026-04-29 08:02 | -0.14476 | -34.38332 | 39933 ft | 473 kts | 218° |
| 2026-04-29 08:02 | -0.19574 | -34.42481 | 39933 ft | 472 kts | 218° |
| 2026-04-29 08:03 | -0.24674 | -34.46631 | 39933 ft | 473 kts | 218° |
| 2026-04-29 08:03 | -0.29802 | -34.50803 | 39933 ft | 472 kts | 218° |
| 2026-04-29 08:04 | -0.34888 | -34.54941 | 39932 ft | 472 kts | 218° |
| 2026-04-29 08:04 | -0.39999 | -34.59100 | 39931 ft | 472 kts | 218° |
| 2026-04-29 08:05 | -0.45075 | -34.63231 | 39933 ft | 472 kts | 218° |
| 2026-04-29 08:05 | -0.50204 | -34.67405 | 39934 ft | 472 kts | 218° |
| 2026-04-29 08:06 | -0.55291 | -34.71546 | 39930 ft | 472 kts | 218° |
| 2026-04-29 08:06 | -0.60368 | -34.75675 | 39931 ft | 472 kts | 218° |
| 2026-04-29 08:07 | -0.65501 | -34.79853 | 39935 ft | 471 kts | 218° |
| 2026-04-29 08:07 | -0.70566 | -34.83978 | 39933 ft | 471 kts | 218° |
| 2026-04-29 08:08 | -0.75663 | -34.88125 | 39930 ft | 470 kts | 218° |
| 2026-04-29 08:08 | -0.80755 | -34.92268 | 39929 ft | 470 kts | 218° |
| 2026-04-29 08:09 | -0.85830 | -34.96400 | 39934 ft | 469 kts | 218° |
| 2026-04-29 08:09 | -0.90903 | -35.00528 | 39932 ft | 469 kts | 218° |
| 2026-04-29 08:10 | -0.95996 | -35.04674 | 39931 ft | 469 kts | 218° |
| 2026-04-29 08:10 | -1.01067 | -35.08802 | 39934 ft | 469 kts | 218° |
| 2026-04-29 08:11 | -1.06111 | -35.12907 | 39933 ft | 469 kts | 218° |
| 2026-04-29 08:11 | -1.11206 | -35.17056 | 39936 ft | 469 kts | 218° |
| 2026-04-29 08:12 | -1.16254 | -35.21166 | 39937 ft | 469 kts | 218° |
| 2026-04-29 08:12 | -1.21340 | -35.25306 | 39936 ft | 470 kts | 218° |
| 2026-04-29 08:13 | -1.26414 | -35.29437 | 39939 ft | 470 kts | 218° |
| 2026-04-29 08:13 | -1.31496 | -35.33575 | 39950 ft | 471 kts | 218° |
| 2026-04-29 08:14 | -1.36568 | -35.37705 | 39953 ft | 471 kts | 218° |
| 2026-04-29 08:14 | -1.41652 | -35.41845 | 39956 ft | 471 kts | 219° |
| 2026-04-29 08:15 | -1.46755 | -35.46000 | 39953 ft | 471 kts | 218° |
| 2026-04-29 08:15 | -1.51813 | -35.50121 | 39955 ft | 471 kts | 219° |
| 2026-04-29 08:16 | -1.56931 | -35.54290 | 39952 ft | 471 kts | 219° |
| 2026-04-29 08:16 | -1.62017 | -35.58432 | 39951 ft | 471 kts | 219° |
| 2026-04-29 08:17 | -1.67100 | -35.62572 | 39954 ft | 472 kts | 219° |
| 2026-04-29 08:17 | -1.72198 | -35.66724 | 39953 ft | 472 kts | 219° |
| 2026-04-29 08:18 | -1.77305 | -35.70886 | 39953 ft | 472 kts | 219° |
| 2026-04-29 08:18 | -1.82398 | -35.75036 | 39952 ft | 472 kts | 219° |
| 2026-04-29 08:19 | -1.87483 | -35.79179 | 39955 ft | 473 kts | 219° |
| 2026-04-29 08:19 | -1.92601 | -35.83349 | 39954 ft | 473 kts | 219° |
| 2026-04-29 08:20 | -1.97701 | -35.87506 | 39955 ft | 473 kts | 219° |
| 2026-04-29 08:20 | -2.02813 | -35.91672 | 39956 ft | 473 kts | 219° |
| 2026-04-29 08:21 | -2.07893 | -35.95813 | 39953 ft | 473 kts | 219° |
| 2026-04-29 08:21 | -2.13004 | -35.99981 | 39945 ft | 473 kts | 219° |
| 2026-04-29 08:22 | -2.18141 | -36.04169 | 39937 ft | 474 kts | 219° |
| 2026-04-29 08:22 | -2.23222 | -36.08311 | 39937 ft | 474 kts | 219° |
| 2026-04-29 08:23 | -2.28358 | -36.12500 | 39938 ft | 474 kts | 219° |
| 2026-04-29 08:23 | -2.33478 | -36.16674 | 39937 ft | 473 kts | 219° |
| 2026-04-29 08:24 | -2.38585 | -36.20840 | 39936 ft | 473 kts | 219° |
| 2026-04-29 08:24 | -2.43660 | -36.24979 | 39937 ft | 473 kts | 219° |
| 2026-04-29 08:25 | -2.48775 | -36.29150 | 39934 ft | 473 kts | 219° |
| 2026-04-29 08:25 | -2.53898 | -36.33330 | 39933 ft | 473 kts | 219° |
| 2026-04-29 08:26 | -2.58991 | -36.37486 | 39931 ft | 472 kts | 219° |
| 2026-04-29 08:26 | -2.64083 | -36.41640 | 39934 ft | 472 kts | 219° |
| 2026-04-29 08:27 | -2.69161 | -36.45784 | 39936 ft | 472 kts | 219° |
| 2026-04-29 08:27 | -2.74276 | -36.49958 | 39932 ft | 471 kts | 219° |
| 2026-04-29 08:28 | -2.79430 | -36.54165 | 39936 ft | 471 kts | 219° |
| 2026-04-29 08:28 | -2.84551 | -36.58345 | 39943 ft | 470 kts | 219° |
| 2026-04-29 08:29 | -2.89693 | -36.62543 | 39952 ft | 470 kts | 219° |
| 2026-04-29 08:29 | -2.94839 | -36.66744 | 39952 ft | 469 kts | 219° |
| 2026-04-29 08:30 | -3.02527 | -36.73024 | 39953 ft | 469 kts | 219° |
| 2026-04-29 08:31 | -3.07642 | -36.77201 | 39952 ft | 469 kts | 219° |
| 2026-04-29 08:31 | -3.12790 | -36.81406 | 39954 ft | 470 kts | 219° |
| 2026-04-29 08:32 | -3.17921 | -36.85597 | 39954 ft | 471 kts | 219° |
| 2026-04-29 08:32 | -3.23031 | -36.89772 | 39955 ft | 470 kts | 219° |
| 2026-04-29 08:33 | -3.28194 | -36.93993 | 39953 ft | 470 kts | 219° |
| 2026-04-29 08:33 | -3.33343 | -36.98204 | 39953 ft | 471 kts | 219° |
| 2026-04-29 08:34 | -3.38532 | -37.02446 | 39954 ft | 471 kts | 219° |
| 2026-04-29 08:34 | -3.43693 | -37.06663 | 39954 ft | 472 kts | 219° |
| 2026-04-29 08:35 | -3.48859 | -37.10886 | 39955 ft | 473 kts | 219° |
| 2026-04-29 08:35 | -3.54096 | -37.15171 | 39955 ft | 473 kts | 218° |
| 2026-04-29 08:36 | -3.59255 | -37.19391 | 39955 ft | 472 kts | 218° |
| 2026-04-29 08:36 | -3.64211 | -37.23444 | 39954 ft | 473 kts | 218° |
| 2026-04-29 08:37 | -3.69054 | -37.27405 | 39955 ft | 472 kts | 218° |
| 2026-04-29 08:37 | -3.73854 | -37.31331 | 39954 ft | 473 kts | 218° |
| 2026-04-29 08:38 | -3.78676 | -37.35277 | 39955 ft | 473 kts | 218° |
| 2026-04-29 08:38 | -3.83408 | -37.39151 | 39953 ft | 474 kts | 218° |
| 2026-04-29 08:39 | -3.88128 | -37.43016 | 39951 ft | 474 kts | 218° |
| 2026-04-29 08:39 | -3.92896 | -37.46920 | 39953 ft | 474 kts | 218° |
| 2026-04-29 08:40 | -3.97643 | -37.50806 | 39955 ft | 475 kts | 218° |
| 2026-04-29 08:40 | -4.02442 | -37.54735 | 39954 ft | 475 kts | 218° |
| 2026-04-29 08:41 | -4.07196 | -37.58630 | 39955 ft | 475 kts | 218° |
| 2026-04-29 08:41 | -4.11913 | -37.62495 | 39955 ft | 475 kts | 218° |
| 2026-04-29 08:42 | -4.16664 | -37.66389 | 39956 ft | 475 kts | 218° |
| 2026-04-29 08:42 | -4.21440 | -37.70305 | 39959 ft | 475 kts | 218° |
| 2026-04-29 08:43 | -4.26206 | -37.74209 | 39960 ft | 474 kts | 218° |
| 2026-04-29 08:43 | -4.31017 | -37.78154 | 39960 ft | 474 kts | 218° |
| 2026-04-29 08:44 | -4.35825 | -37.82095 | 39963 ft | 475 kts | 218° |
| 2026-04-29 08:44 | -4.40616 | -37.86024 | 39965 ft | 475 kts | 218° |
| 2026-04-29 08:45 | -4.45444 | -37.89984 | 39966 ft | 475 kts | 218° |
| 2026-04-29 08:45 | -4.50274 | -37.93947 | 39968 ft | 475 kts | 218° |
| 2026-04-29 08:46 | -4.55082 | -37.97892 | 39971 ft | 475 kts | 218° |
| 2026-04-29 08:46 | -4.59931 | -38.01872 | 39972 ft | 475 kts | 218° |
| 2026-04-29 08:47 | -4.64802 | -38.05871 | 39976 ft | 475 kts | 218° |
| 2026-04-29 08:47 | -4.69649 | -38.09849 | 39978 ft | 475 kts | 218° |
| 2026-04-29 08:48 | -4.74533 | -38.13860 | 39982 ft | 475 kts | 218° |
| 2026-04-29 08:48 | -4.79397 | -38.17855 | 39984 ft | 475 kts | 218° |
| 2026-04-29 08:49 | -4.84244 | -38.21836 | 39984 ft | 476 kts | 218° |
| 2026-04-29 08:49 | -4.89120 | -38.25842 | 39988 ft | 476 kts | 218° |
| 2026-04-29 08:50 | -4.93977 | -38.29834 | 39986 ft | 476 kts | 218° |
| 2026-04-29 08:50 | -4.98811 | -38.33806 | 39987 ft | 476 kts | 218° |
| 2026-04-29 08:51 | -5.03670 | -38.37800 | 39987 ft | 476 kts | 218° |
| 2026-04-29 08:51 | -5.08489 | -38.41763 | 39988 ft | 475 kts | 218° |
| 2026-04-29 08:52 | -5.13298 | -38.45717 | 39991 ft | 475 kts | 218° |
| 2026-04-29 08:52 | -5.18080 | -38.49651 | 39991 ft | 475 kts | 218° |
| 2026-04-29 08:53 | -5.22851 | -38.53576 | 39989 ft | 475 kts | 218° |
| 2026-04-29 08:53 | -5.27608 | -38.57491 | 39993 ft | 475 kts | 218° |
| 2026-04-29 08:54 | -5.32385 | -38.61422 | 39992 ft | 475 kts | 218° |
| 2026-04-29 08:54 | -5.37145 | -38.65342 | 39995 ft | 475 kts | 218° |
| 2026-04-29 08:55 | -5.41917 | -38.69271 | 39999 ft | 475 kts | 218° |
| 2026-04-29 08:55 | -5.46744 | -38.73246 | 39997 ft | 475 kts | 218° |
| 2026-04-29 08:56 | -5.51585 | -38.77234 | 40001 ft | 474 kts | 218° |
| 2026-04-29 08:56 | -5.56390 | -38.81192 | 40002 ft | 474 kts | 218° |
| 2026-04-29 08:57 | -5.61252 | -38.85198 | 40000 ft | 474 kts | 218° |
| 2026-04-29 08:57 | -5.66046 | -38.89149 | 40002 ft | 474 kts | 218° |
| 2026-04-29 08:58 | -5.70914 | -38.93164 | 40005 ft | 475 kts | 218° |
| 2026-04-29 08:58 | -5.75894 | -38.97271 | 40005 ft | 475 kts | 218° |
| 2026-04-29 08:59 | -5.80862 | -39.01370 | 40008 ft | 476 kts | 218° |
| 2026-04-29 08:59 | -5.85841 | -39.05478 | 40015 ft | 475 kts | 218° |
| 2026-04-29 09:00 | -5.90905 | -39.09658 | 40023 ft | 474 kts | 218° |
| 2026-04-29 09:00 | -5.95916 | -39.13794 | 40029 ft | 474 kts | 218° |
| 2026-04-29 09:01 | -6.00918 | -39.17921 | 40029 ft | 475 kts | 218° |
| 2026-04-29 09:01 | -6.05853 | -39.21997 | 40030 ft | 481 kts | 218° |
| 2026-04-29 09:02 | -6.10911 | -39.26176 | 40031 ft | 481 kts | 218° |
| 2026-04-29 09:02 | -6.16019 | -39.30398 | 40036 ft | 482 kts | 218° |
| 2026-04-29 09:03 | -6.21101 | -39.34597 | 40037 ft | 480 kts | 218° |
| 2026-04-29 09:03 | -6.26155 | -39.38777 | 40040 ft | 479 kts | 218° |
| 2026-04-29 09:04 | -6.31229 | -39.42971 | 40039 ft | 479 kts | 218° |
| 2026-04-29 09:04 | -6.36307 | -39.47172 | 40038 ft | 478 kts | 218° |
| 2026-04-29 09:05 | -6.41405 | -39.51391 | 40042 ft | 478 kts | 218° |
| 2026-04-29 09:05 | -6.46433 | -39.55552 | 40038 ft | 479 kts | 218° |
| 2026-04-29 09:06 | -6.51513 | -39.59758 | 40041 ft | 478 kts | 218° |
| 2026-04-29 09:06 | -6.56565 | -39.63941 | 40040 ft | 478 kts | 218° |
| 2026-04-29 09:07 | -6.61589 | -39.68103 | 40047 ft | 478 kts | 219° |
| 2026-04-29 09:07 | -6.66663 | -39.72307 | 40048 ft | 478 kts | 218° |
| 2026-04-29 09:08 | -6.71720 | -39.76499 | 40058 ft | 479 kts | 219° |
| 2026-04-29 09:08 | -6.76780 | -39.80693 | 40067 ft | 480 kts | 219° |
| 2026-04-29 09:09 | -6.81863 | -39.84910 | 40069 ft | 480 kts | 219° |
| 2026-04-29 09:09 | -6.86884 | -39.89077 | 40071 ft | 479 kts | 219° |
| 2026-04-29 09:10 | -6.91944 | -39.93282 | 40074 ft | 479 kts | 218° |
| 2026-04-29 09:10 | -6.96968 | -39.97445 | 40079 ft | 478 kts | 217° |
| 2026-04-29 09:11 | -7.02267 | -40.01289 | 40079 ft | 476 kts | 211° |
| 2026-04-29 09:11 | -7.07841 | -40.04660 | 40085 ft | 476 kts | 209° |
| 2026-04-29 09:12 | -7.13450 | -40.07976 | 40092 ft | 476 kts | 209° |
| 2026-04-29 09:12 | -7.19094 | -40.11321 | 40096 ft | 477 kts | 210° |
| 2026-04-29 09:13 | -7.24703 | -40.14657 | 40100 ft | 476 kts | 210° |
| 2026-04-29 09:13 | -7.30281 | -40.17977 | 40102 ft | 476 kts | 210° |
| 2026-04-29 09:14 | -7.35648 | -40.21175 | 40098 ft | 475 kts | 210° |
| 2026-04-29 09:14 | -7.41007 | -40.24368 | 40095 ft | 475 kts | 210° |
| 2026-04-29 09:15 | -7.46368 | -40.27565 | 40092 ft | 474 kts | 210° |
| 2026-04-29 09:15 | -7.51747 | -40.30770 | 40088 ft | 474 kts | 210° |
| 2026-04-29 09:16 | -7.57133 | -40.33982 | 40088 ft | 474 kts | 210° |
| 2026-04-29 09:16 | -7.62519 | -40.37194 | 40089 ft | 474 kts | 210° |
| 2026-04-29 09:17 | -7.67865 | -40.40385 | 40085 ft | 474 kts | 210° |
| 2026-04-29 09:17 | -7.73278 | -40.43616 | 40085 ft | 473 kts | 210° |
| 2026-04-29 09:18 | -7.78659 | -40.46828 | 40082 ft | 473 kts | 210° |
| 2026-04-29 09:18 | -7.84054 | -40.50052 | 40089 ft | 473 kts | 210° |
| 2026-04-29 09:19 | -7.89466 | -40.53285 | 40088 ft | 473 kts | 210° |
| 2026-04-29 09:19 | -7.94849 | -40.56503 | 40092 ft | 472 kts | 210° |
| 2026-04-29 09:20 | -8.00245 | -40.59728 | 40093 ft | 472 kts | 210° |
| 2026-04-29 09:20 | -8.05668 | -40.62970 | 40092 ft | 472 kts | 210° |
| 2026-04-29 09:21 | -8.11093 | -40.66215 | 40090 ft | 473 kts | 210° |
| 2026-04-29 09:21 | -8.16483 | -40.69443 | 40090 ft | 473 kts | 210° |
| 2026-04-29 09:22 | -8.21867 | -40.72667 | 40086 ft | 473 kts | 210° |
| 2026-04-29 09:22 | -8.27293 | -40.75915 | 40089 ft | 473 kts | 210° |
| 2026-04-29 09:23 | -8.32701 | -40.79155 | 40086 ft | 473 kts | 210° |
| 2026-04-29 09:23 | -8.38350 | -40.82539 | 40084 ft | 473 kts | 210° |
| 2026-04-29 09:24 | -8.43908 | -40.85870 | 40079 ft | 473 kts | 210° |
| 2026-04-29 09:24 | -8.49498 | -40.89222 | 40083 ft | 473 kts | 210° |
| 2026-04-29 09:25 | -8.55118 | -40.92593 | 40085 ft | 474 kts | 210° |
| 2026-04-29 09:25 | -8.60749 | -40.95972 | 40082 ft | 475 kts | 210° |
| 2026-04-29 09:26 | -8.66421 | -40.99376 | 40083 ft | 475 kts | 210° |
| 2026-04-29 09:26 | -8.72084 | -41.02777 | 40084 ft | 475 kts | 209° |
| 2026-04-29 09:27 | -8.77768 | -41.06192 | 40082 ft | 475 kts | 209° |
| 2026-04-29 09:27 | -8.83451 | -41.09606 | 40082 ft | 475 kts | 209° |
| 2026-04-29 09:28 | -8.89112 | -41.13008 | 40081 ft | 475 kts | 209° |
| 2026-04-29 09:28 | -8.94790 | -41.16422 | 40081 ft | 475 kts | 209° |
| 2026-04-29 09:29 | -9.00429 | -41.19814 | 40077 ft | 476 kts | 209° |
| 2026-04-29 09:29 | -9.08939 | -41.24935 | 40085 ft | 476 kts | 209° |
| 2026-04-29 09:30 | -9.14652 | -41.28374 | 40088 ft | 476 kts | 209° |
| 2026-04-29 09:30 | -9.20289 | -41.31771 | 40086 ft | 476 kts | 209° |
| 2026-04-29 09:31 | -9.25944 | -41.35178 | 40085 ft | 475 kts | 209° |
| 2026-04-29 09:31 | -9.31614 | -41.38594 | 40084 ft | 475 kts | 209° |
| 2026-04-29 09:32 | -9.37260 | -41.41999 | 40088 ft | 475 kts | 209° |
| 2026-04-29 09:32 | -9.42900 | -41.45401 | 40094 ft | 475 kts | 209° |
| 2026-04-29 09:33 | -9.48504 | -41.48782 | 40091 ft | 475 kts | 210° |
| 2026-04-29 09:33 | -9.54179 | -41.52209 | 40090 ft | 475 kts | 210° |
| 2026-04-29 09:34 | -9.60061 | -41.55762 | 40091 ft | 475 kts | 210° |
| 2026-04-29 09:34 | -9.65924 | -41.59305 | 40094 ft | 475 kts | 210° |
| 2026-04-29 09:35 | -9.71570 | -41.62717 | 40092 ft | 475 kts | 210° |
| 2026-04-29 09:35 | -9.77211 | -41.66127 | 40095 ft | 476 kts | 210° |
| 2026-04-29 09:36 | -9.82871 | -41.69550 | 40096 ft | 476 kts | 210° |
| 2026-04-29 09:36 | -9.88554 | -41.72990 | 40098 ft | 476 kts | 210° |
| 2026-04-29 09:37 | -9.94197 | -41.76407 | 40101 ft | 476 kts | 210° |
| 2026-04-29 09:37 | -9.99888 | -41.79855 | 40106 ft | 476 kts | 210° |
| 2026-04-29 09:38 | -10.05545 | -41.83283 | 40104 ft | 476 kts | 210° |
| 2026-04-29 09:38 | -10.10980 | -41.86576 | 40101 ft | 477 kts | 210° |
| 2026-04-29 09:39 | -10.16519 | -41.89934 | 40096 ft | 478 kts | 210° |
| 2026-04-29 09:39 | -10.22065 | -41.93301 | 40093 ft | 477 kts | 210° |
| 2026-04-29 09:40 | -10.27685 | -41.96712 | 40093 ft | 477 kts | 210° |
| 2026-04-29 09:40 | -10.33392 | -42.00178 | 40090 ft | 477 kts | 210° |
| 2026-04-29 09:41 | -10.39066 | -42.03626 | 40094 ft | 477 kts | 210° |
| 2026-04-29 09:41 | -10.44745 | -42.07079 | 40098 ft | 477 kts | 210° |
| 2026-04-29 09:42 | -10.50427 | -42.10536 | 40101 ft | 478 kts | 210° |
| 2026-04-29 09:42 | -10.56128 | -42.14006 | 40103 ft | 477 kts | 211° |
| 2026-04-29 09:43 | -10.61636 | -42.17762 | 40100 ft | 478 kts | 217° |
| 2026-04-29 09:43 | -10.66710 | -42.22115 | 40100 ft | 478 kts | 223° |
| 2026-04-29 09:44 | -10.71288 | -42.27029 | 40102 ft | 479 kts | 230° |
| 2026-04-29 09:44 | -10.75461 | -42.32258 | 40101 ft | 479 kts | 231° |
| 2026-04-29 09:45 | -10.79626 | -42.37537 | 40105 ft | 480 kts | 231° |
| 2026-04-29 09:45 | -10.83801 | -42.42813 | 40105 ft | 479 kts | 231° |
| 2026-04-29 09:46 | -10.87977 | -42.48082 | 40105 ft | 479 kts | 231° |
| 2026-04-29 09:46 | -10.92131 | -42.53323 | 40110 ft | 479 kts | 231° |
| 2026-04-29 09:47 | -10.96313 | -42.58598 | 40112 ft | 479 kts | 231° |
| 2026-04-29 09:47 | -11.00455 | -42.63823 | 40106 ft | 478 kts | 231° |
| 2026-04-29 09:48 | -11.04607 | -42.69069 | 40109 ft | 477 kts | 232° |
| 2026-04-29 09:48 | -11.08747 | -42.74298 | 40112 ft | 476 kts | 232° |
| 2026-04-29 09:49 | -11.12890 | -42.79536 | 40116 ft | 475 kts | 232° |
| 2026-04-29 09:49 | -11.17029 | -42.84771 | 40113 ft | 474 kts | 232° |
| 2026-04-29 09:50 | -11.21156 | -42.89993 | 40105 ft | 474 kts | 232° |
| 2026-04-29 09:50 | -11.25267 | -42.95196 | 40094 ft | 474 kts | 232° |
| 2026-04-29 09:51 | -11.29397 | -43.00427 | 40079 ft | 475 kts | 232° |
| 2026-04-29 09:51 | -11.33503 | -43.05629 | 40080 ft | 476 kts | 232° |
| 2026-04-29 09:52 | -11.37662 | -43.10903 | 40078 ft | 476 kts | 232° |
| 2026-04-29 09:52 | -11.41783 | -43.16130 | 40080 ft | 476 kts | 232° |
| 2026-04-29 09:53 | -11.45896 | -43.21350 | 40080 ft | 476 kts | 232° |
| 2026-04-29 09:53 | -11.50051 | -43.26628 | 40083 ft | 477 kts | 232° |
| 2026-04-29 09:54 | -11.54191 | -43.31886 | 40087 ft | 478 kts | 232° |
| 2026-04-29 09:54 | -11.58350 | -43.37173 | 40084 ft | 478 kts | 232° |
| 2026-04-29 09:55 | -11.62494 | -43.42442 | 40086 ft | 479 kts | 232° |
| 2026-04-29 09:55 | -11.66650 | -43.47729 | 40092 ft | 479 kts | 232° |
| 2026-04-29 09:56 | -11.70810 | -43.53024 | 40092 ft | 479 kts | 231° |
| 2026-04-29 09:56 | -11.74970 | -43.58327 | 40098 ft | 480 kts | 231° |
| 2026-04-29 09:57 | -11.79126 | -43.63624 | 40098 ft | 481 kts | 231° |
| 2026-04-29 09:57 | -11.83309 | -43.68959 | 40103 ft | 480 kts | 231° |
| 2026-04-29 09:58 | -11.87445 | -43.74236 | 40112 ft | 480 kts | 231° |
| 2026-04-29 09:58 | -11.91614 | -43.79557 | 40111 ft | 480 kts | 231° |
| 2026-04-29 09:59 | -11.95779 | -43.84875 | 40113 ft | 480 kts | 231° |
| 2026-04-29 09:59 | -11.99925 | -43.90169 | 40114 ft | 480 kts | 231° |
| 2026-04-29 10:00 | -12.04085 | -43.95487 | 40124 ft | 479 kts | 231° |
| 2026-04-29 10:00 | -12.08235 | -44.00798 | 40128 ft | 478 kts | 231° |
| 2026-04-29 10:01 | -12.12377 | -44.06101 | 40135 ft | 478 kts | 231° |
| 2026-04-29 10:01 | -12.16504 | -44.11387 | 40134 ft | 477 kts | 231° |
| 2026-04-29 10:02 | -12.20645 | -44.16692 | 40142 ft | 477 kts | 231° |
| 2026-04-29 10:02 | -12.24769 | -44.21978 | 40145 ft | 478 kts | 231° |
| 2026-04-29 10:03 | -12.28885 | -44.27258 | 40148 ft | 478 kts | 231° |
| 2026-04-29 10:03 | -12.33021 | -44.32566 | 40145 ft | 478 kts | 231° |
| 2026-04-29 10:04 | -12.37174 | -44.37900 | 40150 ft | 478 kts | 231° |
| 2026-04-29 10:04 | -12.41270 | -44.43167 | 40152 ft | 477 kts | 231° |
| 2026-04-29 10:05 | -12.45403 | -44.48481 | 40158 ft | 477 kts | 231° |
| 2026-04-29 10:05 | -12.49532 | -44.53792 | 40161 ft | 477 kts | 231° |
| 2026-04-29 10:06 | -12.53647 | -44.59088 | 40157 ft | 477 kts | 231° |
| 2026-04-29 10:06 | -12.57778 | -44.64407 | 40160 ft | 477 kts | 231° |
| 2026-04-29 10:07 | -12.61890 | -44.69706 | 40154 ft | 477 kts | 232° |
| 2026-04-29 10:07 | -12.66000 | -44.75008 | 40154 ft | 476 kts | 232° |
| 2026-04-29 10:08 | -12.70101 | -44.80300 | 40160 ft | 476 kts | 232° |
| 2026-04-29 10:08 | -12.74213 | -44.85610 | 40157 ft | 476 kts | 231° |
| 2026-04-29 10:09 | -12.78295 | -44.90883 | 40159 ft | 476 kts | 231° |
| 2026-04-29 10:09 | -12.82425 | -44.96220 | 40158 ft | 476 kts | 231° |
| 2026-04-29 10:10 | -12.86519 | -45.01515 | 40166 ft | 476 kts | 231° |
| 2026-04-29 10:10 | -12.90630 | -45.06834 | 40165 ft | 476 kts | 232° |
| 2026-04-29 10:11 | -12.94696 | -45.12099 | 40164 ft | 475 kts | 232° |
| 2026-04-29 10:11 | -12.98804 | -45.17423 | 40169 ft | 476 kts | 232° |
| 2026-04-29 10:12 | -13.02907 | -45.22744 | 40170 ft | 477 kts | 231° |
| 2026-04-29 10:12 | -13.07029 | -45.28091 | 40169 ft | 476 kts | 231° |
| 2026-04-29 10:13 | -13.11107 | -45.33384 | 40166 ft | 476 kts | 231° |
| 2026-04-29 10:13 | -13.15201 | -45.38701 | 40162 ft | 476 kts | 232° |
| 2026-04-29 10:14 | -13.19304 | -45.44037 | 40158 ft | 477 kts | 232° |
| 2026-04-29 10:14 | -13.23402 | -45.49373 | 40161 ft | 478 kts | 232° |
| 2026-04-29 10:15 | -13.27576 | -45.54658 | 40163 ft | 478 kts | 228° |
| 2026-04-29 10:15 | -13.32262 | -45.59489 | 40169 ft | 478 kts | 221° |
| 2026-04-29 10:16 | -13.36543 | -45.63015 | 40169 ft | 477 kts | 215° |
| 2026-04-29 10:16 | -13.43079 | -45.67223 | 40173 ft | 476 kts | 209° |
| 2026-04-29 10:17 | -13.48862 | -45.70576 | 40174 ft | 476 kts | 209° |
| 2026-04-29 10:17 | -13.54608 | -45.73916 | 40177 ft | 476 kts | 209° |
| 2026-04-29 10:18 | -13.60387 | -45.77291 | 40179 ft | 477 kts | 209° |
| 2026-04-29 10:18 | -13.66104 | -45.80637 | 40179 ft | 477 kts | 209° |
| 2026-04-29 10:19 | -13.71874 | -45.84017 | 40184 ft | 477 kts | 210° |
| 2026-04-29 10:19 | -13.77650 | -45.87404 | 40190 ft | 477 kts | 209° |
| 2026-04-29 10:20 | -13.83391 | -45.90773 | 40192 ft | 477 kts | 209° |
| 2026-04-29 10:20 | -13.89176 | -45.94167 | 40196 ft | 477 kts | 210° |
| 2026-04-29 10:21 | -13.94920 | -45.97541 | 40202 ft | 479 kts | 210° |
| 2026-04-29 10:21 | -14.00737 | -46.00963 | 40200 ft | 480 kts | 209° |
| 2026-04-29 10:22 | -14.06496 | -46.04352 | 40204 ft | 480 kts | 209° |
| 2026-04-29 10:22 | -14.12291 | -46.07763 | 40204 ft | 479 kts | 210° |
| 2026-04-29 10:23 | -14.18056 | -46.11157 | 40201 ft | 478 kts | 210° |
| 2026-04-29 10:23 | -14.23807 | -46.14549 | 40197 ft | 478 kts | 210° |
| 2026-04-29 10:24 | -14.29593 | -46.17967 | 40193 ft | 479 kts | 210° |
| 2026-04-29 10:24 | -14.35383 | -46.21392 | 40185 ft | 480 kts | 210° |
| 2026-04-29 10:25 | -14.41145 | -46.24802 | 40176 ft | 480 kts | 210° |
| 2026-04-29 10:25 | -14.46958 | -46.28245 | 40169 ft | 479 kts | 210° |
| 2026-04-29 10:26 | -14.52722 | -46.31663 | 40167 ft | 480 kts | 210° |
| 2026-04-29 10:26 | -14.58496 | -46.35088 | 40167 ft | 480 kts | 210° |
| 2026-04-29 10:27 | -14.67066 | -46.40472 | 40170 ft | 480 kts | 212° |
| 2026-04-29 10:28 | -14.72709 | -46.44117 | 40177 ft | 480 kts | 212° |
| 2026-04-29 10:28 | -14.78382 | -46.47784 | 40179 ft | 480 kts | 212° |
| 2026-04-29 10:29 | -14.84016 | -46.51424 | 40177 ft | 479 kts | 212° |
| 2026-04-29 10:29 | -14.89663 | -46.55074 | 40174 ft | 480 kts | 212° |
| 2026-04-29 10:30 | -14.95338 | -46.58746 | 40173 ft | 480 kts | 212° |
| 2026-04-29 10:30 | -15.00958 | -46.62383 | 40179 ft | 480 kts | 212° |
| 2026-04-29 10:31 | -15.06651 | -46.66068 | 40178 ft | 480 kts | 212° |
| 2026-04-29 10:31 | -15.12272 | -46.69709 | 40179 ft | 480 kts | 212° |
| 2026-04-29 10:32 | -15.17924 | -46.73373 | 40177 ft | 479 kts | 213° |
| 2026-04-29 10:32 | -15.23564 | -46.77034 | 40176 ft | 479 kts | 213° |
| 2026-04-29 10:33 | -15.29203 | -46.80696 | 40175 ft | 481 kts | 213° |
| 2026-04-29 10:33 | -15.34861 | -46.84372 | 40178 ft | 481 kts | 213° |
| 2026-04-29 10:34 | -15.40545 | -46.88066 | 40182 ft | 481 kts | 213° |
| 2026-04-29 10:34 | -15.46186 | -46.91736 | 40181 ft | 481 kts | 213° |
| 2026-04-29 10:35 | -15.51874 | -46.95435 | 40187 ft | 480 kts | 213° |
| 2026-04-29 10:35 | -15.57498 | -46.99099 | 40192 ft | 479 kts | 213° |
| 2026-04-29 10:36 | -15.63126 | -47.02767 | 40203 ft | 478 kts | 213° |
| 2026-04-29 10:36 | -15.68727 | -47.06421 | 40207 ft | 478 kts | 213° |
| 2026-04-29 10:37 | -15.74335 | -47.10082 | 40212 ft | 477 kts | 213° |
| 2026-04-29 10:37 | -15.79973 | -47.13764 | 40215 ft | 477 kts | 213° |
| 2026-04-29 10:38 | -15.85554 | -47.17411 | 40216 ft | 476 kts | 213° |
| 2026-04-29 10:38 | -15.91144 | -47.21066 | 40213 ft | 476 kts | 213° |
| 2026-04-29 10:39 | -15.96734 | -47.24726 | 40214 ft | 476 kts | 213° |
| 2026-04-29 10:39 | -16.02347 | -47.28402 | 40212 ft | 476 kts | 213° |
| 2026-04-29 10:40 | -16.07908 | -47.32045 | 40213 ft | 475 kts | 213° |
| 2026-04-29 10:40 | -16.13479 | -47.35699 | 40213 ft | 475 kts | 213° |
| 2026-04-29 10:41 | -16.19071 | -47.39369 | 40214 ft | 476 kts | 213° |
| 2026-04-29 10:41 | -16.24668 | -47.43044 | 40212 ft | 476 kts | 213° |
| 2026-04-29 10:42 | -16.30275 | -47.46730 | 40211 ft | 476 kts | 213° |
| 2026-04-29 10:42 | -16.35847 | -47.50399 | 40210 ft | 476 kts | 213° |
| 2026-04-29 10:43 | -16.41431 | -47.54075 | 40208 ft | 476 kts | 213° |
| 2026-04-29 10:43 | -16.47208 | -47.57496 | 40208 ft | 477 kts | 209° |
| 2026-04-29 10:44 | -16.53062 | -47.60683 | 40204 ft | 477 kts | 209° |
| 2026-04-29 10:44 | -16.58951 | -47.63887 | 40206 ft | 477 kts | 209° |
| 2026-04-29 10:45 | -16.64846 | -47.67104 | 40206 ft | 477 kts | 209° |
| 2026-04-29 10:45 | -16.70711 | -47.70312 | 40205 ft | 478 kts | 210° |
| 2026-04-29 10:46 | -16.76572 | -47.73521 | 40204 ft | 478 kts | 210° |
| 2026-04-29 10:46 | -16.82469 | -47.76754 | 40201 ft | 477 kts | 210° |
| 2026-04-29 10:47 | -16.88329 | -47.79967 | 40199 ft | 477 kts | 210° |
| 2026-04-29 10:47 | -16.94213 | -47.83197 | 40192 ft | 477 kts | 210° |
| 2026-04-29 10:48 | -17.00102 | -47.86430 | 40185 ft | 477 kts | 210° |
| 2026-04-29 10:48 | -17.05953 | -47.89646 | 40184 ft | 477 kts | 210° |
| 2026-04-29 10:49 | -17.11807 | -47.92868 | 40186 ft | 476 kts | 210° |
| 2026-04-29 10:49 | -17.17684 | -47.96101 | 40188 ft | 476 kts | 210° |
| 2026-04-29 10:50 | -17.23536 | -47.99324 | 40191 ft | 477 kts | 210° |
| 2026-04-29 10:50 | -17.29380 | -48.02545 | 40197 ft | 477 kts | 210° |
| 2026-04-29 10:51 | -17.35284 | -48.05802 | 40194 ft | 477 kts | 210° |
| 2026-04-29 10:51 | -17.41136 | -48.09033 | 40190 ft | 476 kts | 210° |
| 2026-04-29 10:52 | -17.46966 | -48.12253 | 40188 ft | 475 kts | 210° |
| 2026-04-29 10:52 | -17.52795 | -48.15474 | 40186 ft | 475 kts | 210° |
| 2026-04-29 10:53 | -17.58657 | -48.18718 | 40184 ft | 475 kts | 210° |
| 2026-04-29 10:53 | -17.64466 | -48.21934 | 40180 ft | 475 kts | 210° |
| 2026-04-29 10:54 | -17.70311 | -48.25172 | 40183 ft | 475 kts | 210° |
| 2026-04-29 10:54 | -17.76132 | -48.28400 | 40181 ft | 475 kts | 211° |
| 2026-04-29 10:55 | -17.81942 | -48.31623 | 40177 ft | 475 kts | 211° |
| 2026-04-29 10:55 | -17.87791 | -48.34871 | 40168 ft | 474 kts | 211° |
| 2026-04-29 10:56 | -17.93563 | -48.38079 | 40164 ft | 474 kts | 211° |
| 2026-04-29 10:56 | -17.99370 | -48.41309 | 40164 ft | 473 kts | 211° |
| 2026-04-29 10:57 | -18.05183 | -48.44545 | 40156 ft | 473 kts | 211° |
| 2026-04-29 10:57 | -18.10961 | -48.47765 | 40157 ft | 473 kts | 211° |
| 2026-04-29 10:58 | -18.16739 | -48.50988 | 40153 ft | 473 kts | 211° |
| 2026-04-29 10:58 | -18.22489 | -48.54198 | 40152 ft | 473 kts | 211° |
| 2026-04-29 10:59 | -18.28239 | -48.57415 | 40158 ft | 472 kts | 212° |
| 2026-04-29 10:59 | -18.33790 | -48.60972 | 40164 ft | 470 kts | 217° |
| 2026-04-29 11:00 | -18.39213 | -48.64830 | 40169 ft | 469 kts | 217° |
| 2026-04-29 11:00 | -18.44599 | -48.68686 | 40176 ft | 469 kts | 218° |
| 2026-04-29 11:01 | -18.49998 | -48.72548 | 40183 ft | 469 kts | 218° |
| 2026-04-29 11:01 | -18.55364 | -48.76385 | 40185 ft | 469 kts | 218° |
| 2026-04-29 11:02 | -18.60771 | -48.80254 | 40176 ft | 469 kts | 218° |
| 2026-04-29 11:02 | -18.66163 | -48.84113 | 40170 ft | 469 kts | 218° |
| 2026-04-29 11:03 | -18.71523 | -48.87953 | 40164 ft | 469 kts | 218° |
| 2026-04-29 11:03 | -18.76927 | -48.91828 | 40154 ft | 469 kts | 218° |
| 2026-04-29 11:04 | -18.82286 | -48.95673 | 40152 ft | 469 kts | 218° |
| 2026-04-29 11:04 | -18.87697 | -48.99559 | 40153 ft | 469 kts | 218° |
| 2026-04-29 11:05 | -18.93067 | -49.03415 | 40152 ft | 469 kts | 218° |
| 2026-04-29 11:05 | -18.98468 | -49.07300 | 40144 ft | 468 kts | 218° |
| 2026-04-29 11:06 | -19.03841 | -49.11168 | 40143 ft | 468 kts | 218° |
| 2026-04-29 11:06 | -19.09196 | -49.15025 | 40143 ft | 468 kts | 218° |
| 2026-04-29 11:07 | -19.14595 | -49.18917 | 40141 ft | 468 kts | 218° |
| 2026-04-29 11:07 | -19.19976 | -49.22800 | 40140 ft | 468 kts | 218° |
| 2026-04-29 11:08 | -19.25355 | -49.26685 | 40140 ft | 468 kts | 218° |
| 2026-04-29 11:08 | -19.30723 | -49.30564 | 40138 ft | 469 kts | 218° |
| 2026-04-29 11:09 | -19.36088 | -49.34444 | 40137 ft | 468 kts | 218° |
| 2026-04-29 11:09 | -19.41447 | -49.38322 | 40135 ft | 468 kts | 218° |
| 2026-04-29 11:10 | -19.46821 | -49.42213 | 40130 ft | 461 kts | 218° |
| 2026-04-29 11:10 | -19.52038 | -49.45993 | 40132 ft | 457 kts | 219° |
| 2026-04-29 11:11 | -19.57260 | -49.49784 | 40129 ft | 456 kts | 219° |
| 2026-04-29 11:11 | -19.62509 | -49.53599 | 40126 ft | 463 kts | 219° |
| 2026-04-29 11:12 | -19.67862 | -49.57492 | 40123 ft | 470 kts | 219° |
| 2026-04-29 11:12 | -19.73249 | -49.61410 | 40122 ft | 471 kts | 219° |
| 2026-04-29 11:13 | -19.78664 | -49.65351 | 40121 ft | 471 kts | 219° |
| 2026-04-29 11:13 | -19.84218 | -49.69396 | 40120 ft | 471 kts | 219° |
| 2026-04-29 11:14 | -19.89612 | -49.73327 | 40114 ft | 464 kts | 219° |
| 2026-04-29 11:14 | -19.94873 | -49.77160 | 40117 ft | 455 kts | 219° |
| 2026-04-29 11:15 | -20.00057 | -49.80949 | 40108 ft | 455 kts | 219° |
| 2026-04-29 11:15 | -20.05263 | -49.84756 | 40100 ft | 455 kts | 219° |
| 2026-04-29 11:16 | -20.10483 | -49.88576 | 40099 ft | 455 kts | 219° |
| 2026-04-29 11:16 | -20.15617 | -49.92334 | 40097 ft | 455 kts | 220° |
| 2026-04-29 11:17 | -20.20760 | -49.96102 | 40099 ft | 455 kts | 220° |
| 2026-04-29 11:17 | -20.25859 | -49.99842 | 40098 ft | 454 kts | 220° |
| 2026-04-29 11:18 | -20.30978 | -50.03602 | 40098 ft | 455 kts | 220° |
| 2026-04-29 11:18 | -20.36055 | -50.07331 | 40098 ft | 455 kts | 220° |
| 2026-04-29 11:19 | -20.41192 | -50.11107 | 40098 ft | 455 kts | 220° |
| 2026-04-29 11:19 | -20.46303 | -50.14868 | 40095 ft | 455 kts | 220° |
| 2026-04-29 11:20 | -20.51360 | -50.18590 | 40091 ft | 455 kts | 220° |
| 2026-04-29 11:20 | -20.56424 | -50.22324 | 40089 ft | 456 kts | 220° |
| 2026-04-29 11:21 | -20.61501 | -50.26067 | 40087 ft | 455 kts | 220° |
| 2026-04-29 11:21 | -20.66519 | -50.29772 | 40086 ft | 455 kts | 220° |
| 2026-04-29 11:22 | -20.71541 | -50.33483 | 40082 ft | 455 kts | 220° |
| 2026-04-29 11:22 | -20.76555 | -50.37190 | 40080 ft | 454 kts | 220° |
| 2026-04-29 11:23 | -20.81587 | -50.40912 | 40078 ft | 455 kts | 220° |
| 2026-04-29 11:23 | -20.86653 | -50.44665 | 40075 ft | 456 kts | 220° |
| 2026-04-29 11:24 | -20.91679 | -50.48391 | 40074 ft | 455 kts | 220° |
| 2026-04-29 11:24 | -20.96730 | -50.52137 | 40074 ft | 455 kts | 220° |
| 2026-04-29 11:25 | -21.01784 | -50.55890 | 40073 ft | 454 kts | 220° |
| 2026-04-29 11:25 | -21.06823 | -50.59634 | 40076 ft | 453 kts | 220° |
| 2026-04-29 11:26 | -21.14359 | -50.65241 | 40081 ft | 454 kts | 221° |
| 2026-04-29 11:26 | -21.19427 | -50.69017 | 40086 ft | 454 kts | 221° |
| 2026-04-29 11:27 | -21.24422 | -50.72738 | 40090 ft | 453 kts | 221° |
| 2026-04-29 11:27 | -21.29394 | -50.76447 | 40090 ft | 452 kts | 221° |
| 2026-04-29 11:28 | -21.34326 | -50.80129 | 40087 ft | 451 kts | 221° |
| 2026-04-29 11:28 | -21.39497 | -50.83993 | 40085 ft | 452 kts | 221° |
| 2026-04-29 11:29 | -21.44570 | -50.87788 | 40083 ft | 452 kts | 221° |
| 2026-04-29 11:29 | -21.49657 | -50.91596 | 40081 ft | 453 kts | 221° |
| 2026-04-29 11:30 | -21.54745 | -50.95409 | 40080 ft | 452 kts | 221° |
| 2026-04-29 11:30 | -21.59827 | -50.99220 | 40079 ft | 451 kts | 222° |
| 2026-04-29 11:31 | -21.64946 | -51.03059 | 40081 ft | 451 kts | 222° |
| 2026-04-29 11:31 | -21.70038 | -51.06885 | 40079 ft | 450 kts | 222° |
| 2026-04-29 11:32 | -21.75129 | -51.10714 | 40078 ft | 450 kts | 222° |
| 2026-04-29 11:32 | -21.80241 | -51.14561 | 40076 ft | 450 kts | 222° |
| 2026-04-29 11:33 | -21.85198 | -51.18295 | 40072 ft | 449 kts | 222° |
| 2026-04-29 11:33 | -21.90003 | -51.21919 | 40070 ft | 448 kts | 222° |
| 2026-04-29 11:34 | -21.95096 | -51.25763 | 40070 ft | 447 kts | 222° |
| 2026-04-29 11:34 | -22.00169 | -51.29594 | 40076 ft | 448 kts | 222° |
| 2026-04-29 11:35 | -22.05245 | -51.33435 | 40078 ft | 447 kts | 222° |
| 2026-04-29 11:35 | -22.10263 | -51.37235 | 40080 ft | 447 kts | 223° |
| 2026-04-29 11:36 | -22.15401 | -51.40956 | 40085 ft | 449 kts | 219° |
| 2026-04-29 11:36 | -22.20908 | -51.44179 | 40082 ft | 455 kts | 213° |
| 2026-04-29 11:37 | -22.26706 | -51.46932 | 40083 ft | 458 kts | 211° |
| 2026-04-29 11:37 | -22.32517 | -51.49602 | 40081 ft | 457 kts | 211° |
| 2026-04-29 11:38 | -22.38364 | -51.52302 | 40078 ft | 458 kts | 211° |
| 2026-04-29 11:38 | -22.44123 | -51.54968 | 40077 ft | 457 kts | 211° |
| 2026-04-29 11:39 | -22.49906 | -51.57653 | 40076 ft | 457 kts | 211° |
| 2026-04-29 11:39 | -22.55728 | -51.60360 | 40079 ft | 457 kts | 211° |
| 2026-04-29 11:40 | -22.61531 | -51.63057 | 40077 ft | 457 kts | 212° |
| 2026-04-29 11:40 | -22.67336 | -51.65761 | 40083 ft | 456 kts | 212° |
| 2026-04-29 11:41 | -22.73133 | -51.68465 | 40080 ft | 455 kts | 212° |
| 2026-04-29 11:41 | -22.78809 | -51.71111 | 40077 ft | 454 kts | 212° |
| 2026-04-29 11:42 | -22.84394 | -51.73718 | 40081 ft | 454 kts | 212° |
| 2026-04-29 11:42 | -22.89954 | -51.76308 | 40082 ft | 454 kts | 212° |
| 2026-04-29 11:43 | -22.95741 | -51.79004 | 40080 ft | 453 kts | 212° |
| 2026-04-29 11:43 | -23.01490 | -51.81691 | 40084 ft | 452 kts | 212° |
| 2026-04-29 11:44 | -23.07199 | -51.84359 | 40081 ft | 451 kts | 213° |
| 2026-04-29 11:44 | -23.12883 | -51.87022 | 40077 ft | 451 kts | 213° |
| 2026-04-29 11:45 | -23.18571 | -51.89687 | 40081 ft | 452 kts | 213° |
| 2026-04-29 11:45 | -23.24309 | -51.92380 | 40084 ft | 452 kts | 213° |
| 2026-04-29 11:46 | -23.30028 | -51.95066 | 40071 ft | 451 kts | 213° |
| 2026-04-29 11:46 | -23.35690 | -51.97729 | 40076 ft | 451 kts | 213° |
| 2026-04-29 11:47 | -23.41440 | -52.00438 | 40073 ft | 450 kts | 213° |
| 2026-04-29 11:47 | -23.47015 | -52.03062 | 40073 ft | 450 kts | 213° |
| 2026-04-29 11:48 | -23.52710 | -52.05744 | 40074 ft | 450 kts | 213° |
| 2026-04-29 11:48 | -23.58456 | -52.08449 | 40068 ft | 453 kts | 213° |
| 2026-04-29 11:49 | -23.64166 | -52.11144 | 40066 ft | 452 kts | 213° |
| 2026-04-29 11:49 | -23.69918 | -52.13855 | 40064 ft | 450 kts | 214° |
| 2026-04-29 11:50 | -23.75557 | -52.16524 | 40064 ft | 451 kts | 214° |
| 2026-04-29 11:50 | -23.78383 | -52.17864 | 39879 ft | 451 kts | 214° |
| 2026-04-29 11:50 | -23.81169 | -52.19183 | 39534 ft | 450 kts | 214° |
| 2026-04-29 11:51 | -23.83980 | -52.20516 | 39212 ft | 448 kts | 214° |
| 2026-04-29 11:51 | -23.86805 | -52.21858 | 38892 ft | 445 kts | 214° |
| 2026-04-29 11:51 | -23.89621 | -52.23193 | 38595 ft | 445 kts | 214° |
| 2026-04-29 11:51 | -23.92372 | -52.24573 | 38308 ft | 443 kts | 217° |
| 2026-04-29 11:52 | -23.95051 | -52.26100 | 38015 ft | 439 kts | 220° |
| 2026-04-29 11:52 | -23.97619 | -52.27764 | 37722 ft | 433 kts | 223° |
| 2026-04-29 11:52 | -24.00049 | -52.29535 | 37436 ft | 428 kts | 226° |
| 2026-04-29 11:52 | -24.02403 | -52.31456 | 37137 ft | 423 kts | 229° |
| 2026-04-29 11:53 | -24.04622 | -52.33473 | 36844 ft | 418 kts | 231° |
| 2026-04-29 11:53 | -24.06724 | -52.35591 | 36551 ft | 414 kts | 234° |
| 2026-04-29 11:53 | -24.08698 | -52.37774 | 36258 ft | 412 kts | 236° |
| 2026-04-29 11:53 | -24.10651 | -52.39995 | 35963 ft | 411 kts | 236° |
| 2026-04-29 11:54 | -24.12615 | -52.42238 | 35670 ft | 412 kts | 236° |
| 2026-04-29 11:54 | -24.14509 | -52.44404 | 35391 ft | 411 kts | 236° |
| 2026-04-29 11:54 | -24.16474 | -52.46646 | 35103 ft | 411 kts | 236° |
| 2026-04-29 11:54 | -24.18421 | -52.48869 | 34819 ft | 412 kts | 235° |
| 2026-04-29 11:55 | -24.20405 | -52.51134 | 34528 ft | 411 kts | 236° |
| 2026-04-29 11:55 | -24.22246 | -52.53234 | 34258 ft | 412 kts | 236° |
| 2026-04-29 11:55 | -24.24088 | -52.55333 | 33990 ft | 413 kts | 235° |
| 2026-04-29 11:55 | -24.25928 | -52.57439 | 33726 ft | 414 kts | 235° |
| 2026-04-29 11:56 | -24.27868 | -52.59652 | 33448 ft | 413 kts | 235° |
| 2026-04-29 11:56 | -24.29803 | -52.61859 | 33169 ft | 416 kts | 235° |
| 2026-04-29 11:56 | -24.31729 | -52.64064 | 32896 ft | 415 kts | 235° |
| 2026-04-29 11:56 | -24.33645 | -52.66255 | 32663 ft | 416 kts | 235° |
| 2026-04-29 11:57 | -24.35602 | -52.68491 | 32415 ft | 418 kts | 235° |
| 2026-04-29 11:57 | -24.37533 | -52.70699 | 32172 ft | 419 kts | 236° |
| 2026-04-29 11:57 | -24.39500 | -52.72951 | 31929 ft | 422 kts | 235° |
| 2026-04-29 11:57 | -24.41444 | -52.75180 | 31691 ft | 425 kts | 235° |
| 2026-04-29 11:58 | -24.43412 | -52.77439 | 31445 ft | 427 kts | 235° |
| 2026-04-29 11:58 | -24.45391 | -52.79710 | 31204 ft | 428 kts | 235° |
| 2026-04-29 11:58 | -24.47368 | -52.81975 | 30967 ft | 430 kts | 235° |
| 2026-04-29 11:58 | -24.49306 | -52.84199 | 30732 ft | 432 kts | 234° |
| 2026-04-29 11:59 | -24.51227 | -52.86409 | 30504 ft | 433 kts | 235° |
| 2026-04-29 11:59 | -24.53236 | -52.88714 | 30270 ft | 437 kts | 235° |
| 2026-04-29 11:59 | -24.55260 | -52.91040 | 30026 ft | 441 kts | 235° |
| 2026-04-29 11:59 | -24.57260 | -52.93342 | 29787 ft | 439 kts | 235° |
| 2026-04-29 12:00 | -24.59285 | -52.95669 | 29552 ft | 439 kts | 235° |
| 2026-04-29 12:00 | -24.61330 | -52.98024 | 29314 ft | 440 kts | 235° |
| 2026-04-29 12:00 | -24.63268 | -53.00254 | 29091 ft | 438 kts | 235° |
| 2026-04-29 12:00 | -24.65210 | -53.02519 | 28862 ft | 438 kts | 237° |
| 2026-04-29 12:01 | -24.67040 | -53.04947 | 28547 ft | 432 kts | 241° |
| 2026-04-29 12:01 | -24.68676 | -53.07502 | 28145 ft | 424 kts | 245° |
| 2026-04-29 12:01 | -24.70107 | -53.10165 | 27743 ft | 416 kts | 249° |
| 2026-04-29 12:01 | -24.71388 | -53.12869 | 27274 ft | 413 kts | 250° |
| 2026-04-29 12:02 | -24.72637 | -53.15557 | 26778 ft | 410 kts | 250° |
| 2026-04-29 12:02 | -24.73894 | -53.18272 | 26349 ft | 406 kts | 250° |
| 2026-04-29 12:02 | -24.75123 | -53.20924 | 25920 ft | 402 kts | 250° |
| 2026-04-29 12:02 | -24.76354 | -53.23580 | 25461 ft | 399 kts | 250° |
| 2026-04-29 12:03 | -24.77591 | -53.26242 | 25020 ft | 396 kts | 250° |
| 2026-04-29 12:03 | -24.78817 | -53.28885 | 24558 ft | 393 kts | 250° |
| 2026-04-29 12:03 | -24.80028 | -53.31496 | 24112 ft | 390 kts | 250° |
| 2026-04-29 12:03 | -24.81225 | -53.34082 | 23660 ft | 388 kts | 250° |
| 2026-04-29 12:04 | -24.82427 | -53.36672 | 23253 ft | 384 kts | 250° |
| 2026-04-29 12:04 | -24.83592 | -53.39183 | 22842 ft | 381 kts | 250° |
| 2026-04-29 12:04 | -24.84771 | -53.41732 | 22372 ft | 380 kts | 250° |
| 2026-04-29 12:04 | -24.85934 | -53.44244 | 21894 ft | 379 kts | 250° |
| 2026-04-29 12:05 | -24.87090 | -53.46744 | 21433 ft | 377 kts | 250° |
| 2026-04-29 12:05 | -24.88246 | -53.49244 | 20986 ft | 376 kts | 250° |
| 2026-04-29 12:05 | -24.89372 | -53.51680 | 20550 ft | 374 kts | 250° |
| 2026-04-29 12:05 | -24.90423 | -53.53952 | 20133 ft | 373 kts | 250° |
| 2026-04-29 12:06 | -24.91492 | -53.56263 | 19697 ft | 372 kts | 250° |
| 2026-04-29 12:06 | -24.92542 | -53.58540 | 19283 ft | 370 kts | 250° |
| 2026-04-29 12:06 | -24.93594 | -53.60820 | 18903 ft | 367 kts | 250° |
| 2026-04-29 12:06 | -24.94651 | -53.63111 | 18488 ft | 366 kts | 250° |
| 2026-04-29 12:07 | -24.95747 | -53.65489 | 17988 ft | 367 kts | 250° |
| 2026-04-29 12:07 | -24.96792 | -53.67762 | 17516 ft | 368 kts | 251° |
| 2026-04-29 12:07 | -24.97914 | -53.70200 | 17032 ft | 368 kts | 250° |
| 2026-04-29 12:07 | -24.99030 | -53.72629 | 16530 ft | 369 kts | 250° |
| 2026-04-29 12:08 | -25.00157 | -53.75079 | 16076 ft | 368 kts | 250° |
| 2026-04-29 12:08 | -25.01248 | -53.77451 | 15642 ft | 366 kts | 250° |
| 2026-04-29 12:08 | -25.02367 | -53.79887 | 15162 ft | 366 kts | 250° |
| 2026-04-29 12:08 | -25.03437 | -53.82215 | 14719 ft | 365 kts | 250° |
| 2026-04-29 12:09 | -25.04515 | -53.84562 | 14283 ft | 364 kts | 250° |
| 2026-04-29 12:09 | -25.05632 | -53.86993 | 13809 ft | 363 kts | 250° |
| 2026-04-29 12:09 | -25.06747 | -53.89426 | 13351 ft | 362 kts | 250° |
| 2026-04-29 12:09 | -25.07837 | -53.91809 | 12915 ft | 360 kts | 250° |
| 2026-04-29 12:10 | -25.08948 | -53.94236 | 12460 ft | 358 kts | 250° |
| 2026-04-29 12:10 | -25.10025 | -53.96587 | 11993 ft | 358 kts | 250° |
| 2026-04-29 12:10 | -25.11072 | -53.98875 | 11535 ft | 357 kts | 250° |
| 2026-04-29 12:10 | -25.12116 | -54.01160 | 11114 ft | 354 kts | 250° |
| 2026-04-29 12:11 | -25.13121 | -54.03359 | 10735 ft | 351 kts | 249° |
| 2026-04-29 12:11 | -25.14198 | -54.05711 | 10329 ft | 348 kts | 249° |
| 2026-04-29 12:11 | -25.15216 | -54.07935 | 10127 ft | 339 kts | 249° |
| 2026-04-29 12:11 | -25.16246 | -54.10177 | 10098 ft | 324 kts | 249° |
| 2026-04-29 12:12 | -25.17160 | -54.12170 | 10077 ft | 312 kts | 250° |
| 2026-04-29 12:12 | -25.18067 | -54.14154 | 10049 ft | 300 kts | 250° |
| 2026-04-29 12:12 | -25.18939 | -54.16071 | 10022 ft | 288 kts | 250° |
| 2026-04-29 12:12 | -25.19752 | -54.17859 | 9821 ft | 285 kts | 250° |
| 2026-04-29 12:13 | -25.20546 | -54.19611 | 9526 ft | 285 kts | 250° |
| 2026-04-29 12:13 | -25.21408 | -54.21511 | 9214 ft | 284 kts | 250° |
| 2026-04-29 12:13 | -25.22285 | -54.23442 | 8907 ft | 284 kts | 250° |
| 2026-04-29 12:13 | -25.23151 | -54.25346 | 8603 ft | 283 kts | 250° |
| 2026-04-29 12:14 | -25.23991 | -54.27198 | 8316 ft | 281 kts | 250° |
| 2026-04-29 12:14 | -25.24841 | -54.29073 | 8038 ft | 280 kts | 250° |
| 2026-04-29 12:14 | -25.25688 | -54.30944 | 7746 ft | 280 kts | 249° |
| 2026-04-29 12:14 | -25.26570 | -54.32887 | 7464 ft | 278 kts | 249° |
| 2026-04-29 12:15 | -25.27453 | -54.34832 | 7168 ft | 278 kts | 250° |
| 2026-04-29 12:15 | -25.28265 | -54.36623 | 6888 ft | 277 kts | 250° |
| 2026-04-29 12:15 | -25.29090 | -54.38441 | 6618 ft | 276 kts | 249° |
| 2026-04-29 12:15 | -25.29883 | -54.40192 | 6368 ft | 276 kts | 249° |
| 2026-04-29 12:16 | -25.30688 | -54.41978 | 6109 ft | 275 kts | 249° |
| 2026-04-29 12:16 | -25.31550 | -54.43882 | 5836 ft | 275 kts | 249° |
| 2026-04-29 12:16 | -25.32348 | -54.45644 | 5573 ft | 274 kts | 249° |
| 2026-04-29 12:16 | -25.33208 | -54.47545 | 5292 ft | 274 kts | 248° |
| 2026-04-29 12:17 | -25.34058 | -54.49430 | 5016 ft | 273 kts | 248° |
| 2026-04-29 12:17 | -25.34902 | -54.51299 | 4750 ft | 273 kts | 248° |
| 2026-04-29 12:17 | -25.35740 | -54.53154 | 4487 ft | 272 kts | 248° |
| 2026-04-29 12:17 | -25.36590 | -54.55033 | 4216 ft | 272 kts | 247° |
| 2026-04-29 12:18 | -25.37447 | -54.56926 | 4036 ft | 267 kts | 247° |
| 2026-04-29 12:18 | -25.38296 | -54.58733 | 4023 ft | 258 kts | 240° |
| 2026-04-29 12:18 | -25.39609 | -54.60086 | 3975 ft | 257 kts | 210° |
| 2026-04-29 12:18 | -25.41200 | -54.60807 | 3883 ft | 252 kts | 202° |
| 2026-04-29 12:19 | -25.42820 | -54.61432 | 3775 ft | 245 kts | 201° |
| 2026-04-29 12:19 | -25.44349 | -54.62024 | 3681 ft | 238 kts | 201° |
| 2026-04-29 12:19 | -25.45833 | -54.62613 | 3600 ft | 230 kts | 202° |
| 2026-04-29 12:19 | -25.47231 | -54.63157 | 3531 ft | 222 kts | 195° |
| 2026-04-29 12:20 | -25.48672 | -54.63063 | 3481 ft | 213 kts | 153° |
| 2026-04-29 12:20 | -25.49655 | -54.62156 | 3379 ft | 196 kts | 124° |
| 2026-04-29 12:20 | -25.50328 | -54.61050 | 3279 ft | 181 kts | 118° |
| 2026-04-29 12:20 | -25.50943 | -54.60032 | 3131 ft | 172 kts | 121° |
| 2026-04-29 12:21 | -25.51600 | -54.59048 | 2921 ft | 168 kts | 124° |
| 2026-04-29 12:21 | -25.52264 | -54.58143 | 2708 ft | 164 kts | 127° |
| 2026-04-29 12:21 | -25.52930 | -54.57283 | 2510 ft | 159 kts | 128° |
| 2026-04-29 12:21 | -25.53582 | -54.56454 | 2319 ft | 154 kts | 128° |
| 2026-04-29 12:22 | -25.54213 | -54.55649 | 2136 ft | 148 kts | 128° |
| 2026-04-29 12:22 | -25.54826 | -54.54862 | 1959 ft | 144 kts | 128° |
| 2026-04-29 12:22 | -25.55421 | -54.54095 | 1798 ft | 143 kts | 129° |
| 2026-04-29 12:22 | -25.56018 | -54.53328 | 1630 ft | 142 kts | 129° |
| 2026-04-29 12:23 | -25.56596 | -54.52584 | 1463 ft | 141 kts | 129° |
| 2026-04-29 12:23 | -25.57182 | -54.51832 | 1289 ft | 140 kts | 129° |
| 2026-04-29 12:23 | -25.57766 | -54.51082 | 1116 ft | 139 kts | 130° |
| 2026-04-29 12:23 | -25.58349 | -54.50334 | 946 ft | 137 kts | 130° |
| 2026-04-29 12:24 | -25.58920 | -54.49600 | 780 ft | 136 kts | 131° |
| 2026-04-29 12:24 | -25.59441 | -54.48935 | 774 ft | 100 kts | 130° |
| 2026-04-29 12:24 | -25.59718 | -54.48563 | 789 ft | 31 kts | 130° |
| 2026-04-29 12:24 | -25.59784 | -54.48510 | 791 ft | 10 kts | 179° |
| 2026-04-29 12:25 | -25.59834 | -54.48536 | 791 ft | 0 kts | 219° |
| 2026-04-29 12:25 | -25.59841 | -54.48544 | 791 ft | 2 kts | 233° |
| 2026-04-29 12:25 | -25.59828 | -54.48589 | 790 ft | 3 kts | 323° |
| 2026-04-29 12:26 | -25.59817 | -54.48592 | 790 ft | 5 kts | 347° |
| 2026-04-29 12:26 | -25.59765 | -54.48660 | 787 ft | 8 kts | 285° |
| 2026-04-29 12:26 | -25.59738 | -54.48707 | 786 ft | 9 kts | 306° |
| 2026-04-29 12:26 | -25.59699 | -54.48757 | 784 ft | 6 kts | 312° |
| 2026-04-29 12:27 | -25.59674 | -54.48790 | 783 ft | 4 kts | 306° |
| 2026-04-29 12:27 | -25.59669 | -54.48817 | 782 ft | 2 kts | 260° |
| 2026-04-29 12:27 | -25.59676 | -54.48832 | 782 ft | 2 kts | 230° |
| 2026-04-29 12:27 | -25.59683 | -54.48839 | 782 ft | 1 kts | 217° |
| 2026-04-29 12:28 | -25.59692 | -54.48847 | 782 ft | 1 kts | 219° |
| 2026-04-29 12:28 | -25.59693 | -54.48848 | 782 ft | 0 kts | 219° |
| 2026-04-29 12:28 | -25.59695 | -54.48850 | 782 ft | 1 kts | 219° |
| 2026-04-29 12:28 | -25.59697 | -54.48852 | 782 ft | 0 kts | 219° |